<?xml version="1.0" encoding="UTF-8" standalone="no" ?>
<gpx xmlns="http://www.topografix.com/GPX/1/1" xmlns:xsi="http://www.w3.org/2001/XMLSchema-instance" xsi:schemaLocation="http://www.topografix.com/GPX/1/1 http://www.topografix.com/GPX/1/1/gpx.xsd" version="1.1" creator="VisuGPX - https://www.visugpx.com">
  <metadata>
    <name>Grand Colombier par Culoz</name>
    <desc><![CDATA[Belle balade automnale et sportive pour un panorama à couper le souffle.]]></desc>
  </metadata>
  <trk>
    <name><![CDATA[2013-11-17 16:48:57]]></name>
    <trkseg>
      <trkpt lat="45.85682" lon="5.7759">
        <ele>470.22</ele>
        <time>2013-11-17T07:57:16Z</time>
      </trkpt>
      <trkpt lat="45.85682" lon="5.77591">
        <ele>469.74</ele>
        <time>2013-11-17T07:57:46Z</time>
      </trkpt>
      <trkpt lat="45.85679" lon="5.77594">
        <ele>469.74</ele>
        <time>2013-11-17T07:58:16Z</time>
      </trkpt>
      <trkpt lat="45.85682" lon="5.77592">
        <ele>469.26</ele>
        <time>2013-11-17T07:58:46Z</time>
      </trkpt>
      <trkpt lat="45.85683" lon="5.77595">
        <ele>469.26</ele>
        <time>2013-11-17T07:59:16Z</time>
      </trkpt>
      <trkpt lat="45.85678" lon="5.77594">
        <ele>469.26</ele>
        <time>2013-11-17T07:59:46Z</time>
      </trkpt>
      <trkpt lat="45.85678" lon="5.77592">
        <ele>469.74</ele>
        <time>2013-11-17T08:00:16Z</time>
      </trkpt>
      <trkpt lat="45.85682" lon="5.77591">
        <ele>469.74</ele>
        <time>2013-11-17T08:00:46Z</time>
      </trkpt>
      <trkpt lat="45.85682" lon="5.77595">
        <ele>469.26</ele>
        <time>2013-11-17T08:01:16Z</time>
      </trkpt>
      <trkpt lat="45.85682" lon="5.77594">
        <ele>469.26</ele>
        <time>2013-11-17T08:01:46Z</time>
      </trkpt>
      <trkpt lat="45.85681" lon="5.77596">
        <ele>469.26</ele>
        <time>2013-11-17T08:02:16Z</time>
      </trkpt>
      <trkpt lat="45.8568" lon="5.77595">
        <ele>469.74</ele>
        <time>2013-11-17T08:02:46Z</time>
      </trkpt>
      <trkpt lat="45.85679" lon="5.77594">
        <ele>471.18</ele>
        <time>2013-11-17T08:03:16Z</time>
      </trkpt>
      <trkpt lat="45.85678" lon="5.77598">
        <ele>471.18</ele>
        <time>2013-11-17T08:03:46Z</time>
      </trkpt>
      <trkpt lat="45.85679" lon="5.77598">
        <ele>471.66</ele>
        <time>2013-11-17T08:04:16Z</time>
      </trkpt>
      <trkpt lat="45.85681" lon="5.77594">
        <ele>471.66</ele>
        <time>2013-11-17T08:04:46Z</time>
      </trkpt>
      <trkpt lat="45.85682" lon="5.77591">
        <ele>471.66</ele>
        <time>2013-11-17T08:05:16Z</time>
      </trkpt>
      <trkpt lat="45.85683" lon="5.77593">
        <ele>471.66</ele>
        <time>2013-11-17T08:05:46Z</time>
      </trkpt>
      <trkpt lat="45.85685" lon="5.77554">
        <ele>470.7</ele>
        <time>2013-11-17T08:06:16Z</time>
      </trkpt>
      <trkpt lat="45.85699" lon="5.77523">
        <ele>474.07</ele>
        <time>2013-11-17T08:06:46Z</time>
      </trkpt>
      <trkpt lat="45.85705" lon="5.77494">
        <ele>476.95</ele>
        <time>2013-11-17T08:07:16Z</time>
      </trkpt>
      <trkpt lat="45.85688" lon="5.77458">
        <ele>480.32</ele>
        <time>2013-11-17T08:07:46Z</time>
      </trkpt>
      <trkpt lat="45.85668" lon="5.77425">
        <ele>484.16</ele>
        <time>2013-11-17T08:08:16Z</time>
      </trkpt>
      <trkpt lat="45.85646" lon="5.77391">
        <ele>487.53</ele>
        <time>2013-11-17T08:08:46Z</time>
      </trkpt>
      <trkpt lat="45.8562" lon="5.77366">
        <ele>491.37</ele>
        <time>2013-11-17T08:09:16Z</time>
      </trkpt>
      <trkpt lat="45.85599" lon="5.77331">
        <ele>493.29</ele>
        <time>2013-11-17T08:09:46Z</time>
      </trkpt>
      <trkpt lat="45.85578" lon="5.77305">
        <ele>497.62</ele>
        <time>2013-11-17T08:10:16Z</time>
      </trkpt>
      <trkpt lat="45.85553" lon="5.77287">
        <ele>500.98</ele>
        <time>2013-11-17T08:10:46Z</time>
      </trkpt>
      <trkpt lat="45.85525" lon="5.77297">
        <ele>504.83</ele>
        <time>2013-11-17T08:11:16Z</time>
      </trkpt>
      <trkpt lat="45.85515" lon="5.77292">
        <ele>506.75</ele>
        <time>2013-11-17T08:11:46Z</time>
      </trkpt>
      <trkpt lat="45.85535" lon="5.77274">
        <ele>509.64</ele>
        <time>2013-11-17T08:12:16Z</time>
      </trkpt>
      <trkpt lat="45.85557" lon="5.77253">
        <ele>513.48</ele>
        <time>2013-11-17T08:12:46Z</time>
      </trkpt>
      <trkpt lat="45.85587" lon="5.77261">
        <ele>517.81</ele>
        <time>2013-11-17T08:13:16Z</time>
      </trkpt>
      <trkpt lat="45.85613" lon="5.77293">
        <ele>522.13</ele>
        <time>2013-11-17T08:13:46Z</time>
      </trkpt>
      <trkpt lat="45.85641" lon="5.77311">
        <ele>526.46</ele>
        <time>2013-11-17T08:14:16Z</time>
      </trkpt>
      <trkpt lat="45.8567" lon="5.77322">
        <ele>530.3</ele>
        <time>2013-11-17T08:14:46Z</time>
      </trkpt>
      <trkpt lat="45.85689" lon="5.77323">
        <ele>535.59</ele>
        <time>2013-11-17T08:15:16Z</time>
      </trkpt>
      <trkpt lat="45.85664" lon="5.77302">
        <ele>537.99</ele>
        <time>2013-11-17T08:15:46Z</time>
      </trkpt>
      <trkpt lat="45.8564" lon="5.77276">
        <ele>541.36</ele>
        <time>2013-11-17T08:16:16Z</time>
      </trkpt>
      <trkpt lat="45.85624" lon="5.77238">
        <ele>545.2</ele>
        <time>2013-11-17T08:16:46Z</time>
      </trkpt>
      <trkpt lat="45.85626" lon="5.772">
        <ele>548.57</ele>
        <time>2013-11-17T08:17:16Z</time>
      </trkpt>
      <trkpt lat="45.85636" lon="5.77166">
        <ele>552.41</ele>
        <time>2013-11-17T08:17:46Z</time>
      </trkpt>
      <trkpt lat="45.85642" lon="5.77181">
        <ele>556.74</ele>
        <time>2013-11-17T08:18:16Z</time>
      </trkpt>
      <trkpt lat="45.85655" lon="5.77212">
        <ele>560.59</ele>
        <time>2013-11-17T08:18:46Z</time>
      </trkpt>
      <trkpt lat="45.85675" lon="5.77239">
        <ele>564.43</ele>
        <time>2013-11-17T08:19:16Z</time>
      </trkpt>
      <trkpt lat="45.85696" lon="5.77253">
        <ele>567.8</ele>
        <time>2013-11-17T08:19:46Z</time>
      </trkpt>
      <trkpt lat="45.85725" lon="5.77268">
        <ele>572.12</ele>
        <time>2013-11-17T08:20:16Z</time>
      </trkpt>
      <trkpt lat="45.85751" lon="5.7728">
        <ele>575.49</ele>
        <time>2013-11-17T08:20:46Z</time>
      </trkpt>
      <trkpt lat="45.85751" lon="5.77267">
        <ele>579.81</ele>
        <time>2013-11-17T08:21:16Z</time>
      </trkpt>
      <trkpt lat="45.85731" lon="5.77247">
        <ele>583.18</ele>
        <time>2013-11-17T08:21:46Z</time>
      </trkpt>
      <trkpt lat="45.85725" lon="5.77211">
        <ele>586.54</ele>
        <time>2013-11-17T08:22:16Z</time>
      </trkpt>
      <trkpt lat="45.85719" lon="5.77173">
        <ele>590.39</ele>
        <time>2013-11-17T08:22:46Z</time>
      </trkpt>
      <trkpt lat="45.85717" lon="5.77133">
        <ele>593.75</ele>
        <time>2013-11-17T08:23:16Z</time>
      </trkpt>
      <trkpt lat="45.85716" lon="5.77092">
        <ele>597.12</ele>
        <time>2013-11-17T08:23:46Z</time>
      </trkpt>
      <trkpt lat="45.85718" lon="5.77051">
        <ele>600.96</ele>
        <time>2013-11-17T08:24:16Z</time>
      </trkpt>
      <trkpt lat="45.85717" lon="5.77047">
        <ele>600</ele>
        <time>2013-11-17T08:24:46Z</time>
      </trkpt>
      <trkpt lat="45.8571" lon="5.77039">
        <ele>600.96</ele>
        <time>2013-11-17T08:25:16Z</time>
      </trkpt>
      <trkpt lat="45.85714" lon="5.77036">
        <ele>600.96</ele>
        <time>2013-11-17T08:25:46Z</time>
      </trkpt>
      <trkpt lat="45.85711" lon="5.77041">
        <ele>600.96</ele>
        <time>2013-11-17T08:26:16Z</time>
      </trkpt>
      <trkpt lat="45.85715" lon="5.77042">
        <ele>600.96</ele>
        <time>2013-11-17T08:26:46Z</time>
      </trkpt>
      <trkpt lat="45.85719" lon="5.77042">
        <ele>601.44</ele>
        <time>2013-11-17T08:27:16Z</time>
      </trkpt>
      <trkpt lat="45.85707" lon="5.77044">
        <ele>602.4</ele>
        <time>2013-11-17T08:27:46Z</time>
      </trkpt>
      <trkpt lat="45.85702" lon="5.77044">
        <ele>601.44</ele>
        <time>2013-11-17T08:28:16Z</time>
      </trkpt>
      <trkpt lat="45.85696" lon="5.77048">
        <ele>601.92</ele>
        <time>2013-11-17T08:28:46Z</time>
      </trkpt>
      <trkpt lat="45.85696" lon="5.77041">
        <ele>601.92</ele>
        <time>2013-11-17T08:29:16Z</time>
      </trkpt>
      <trkpt lat="45.85698" lon="5.7704">
        <ele>602.4</ele>
        <time>2013-11-17T08:29:46Z</time>
      </trkpt>
      <trkpt lat="45.85701" lon="5.77038">
        <ele>604.81</ele>
        <time>2013-11-17T08:30:16Z</time>
      </trkpt>
      <trkpt lat="45.85709" lon="5.77084">
        <ele>609.13</ele>
        <time>2013-11-17T08:30:46Z</time>
      </trkpt>
      <trkpt lat="45.85733" lon="5.7711">
        <ele>613.94</ele>
        <time>2013-11-17T08:31:16Z</time>
      </trkpt>
      <trkpt lat="45.8575" lon="5.77147">
        <ele>617.3</ele>
        <time>2013-11-17T08:31:46Z</time>
      </trkpt>
      <trkpt lat="45.85765" lon="5.77178">
        <ele>620.67</ele>
        <time>2013-11-17T08:32:16Z</time>
      </trkpt>
      <trkpt lat="45.85787" lon="5.77196">
        <ele>624.99</ele>
        <time>2013-11-17T08:32:46Z</time>
      </trkpt>
      <trkpt lat="45.85813" lon="5.77207">
        <ele>628.36</ele>
        <time>2013-11-17T08:33:16Z</time>
      </trkpt>
      <trkpt lat="45.85837" lon="5.77227">
        <ele>631.72</ele>
        <time>2013-11-17T08:33:46Z</time>
      </trkpt>
      <trkpt lat="45.85855" lon="5.77268">
        <ele>636.05</ele>
        <time>2013-11-17T08:34:16Z</time>
      </trkpt>
      <trkpt lat="45.85868" lon="5.77292">
        <ele>640.38</ele>
        <time>2013-11-17T08:34:46Z</time>
      </trkpt>
      <trkpt lat="45.85866" lon="5.77256">
        <ele>644.7</ele>
        <time>2013-11-17T08:35:16Z</time>
      </trkpt>
      <trkpt lat="45.85865" lon="5.77219">
        <ele>647.59</ele>
        <time>2013-11-17T08:35:46Z</time>
      </trkpt>
      <trkpt lat="45.85852" lon="5.77185">
        <ele>650.95</ele>
        <time>2013-11-17T08:36:16Z</time>
      </trkpt>
      <trkpt lat="45.85836" lon="5.77161">
        <ele>654.31</ele>
        <time>2013-11-17T08:36:46Z</time>
      </trkpt>
      <trkpt lat="45.85835" lon="5.77124">
        <ele>657.68</ele>
        <time>2013-11-17T08:37:16Z</time>
      </trkpt>
      <trkpt lat="45.85839" lon="5.77081">
        <ele>661.52</ele>
        <time>2013-11-17T08:37:46Z</time>
      </trkpt>
      <trkpt lat="45.85831" lon="5.77042">
        <ele>664.89</ele>
        <time>2013-11-17T08:38:16Z</time>
      </trkpt>
      <trkpt lat="45.8583" lon="5.76998">
        <ele>668.73</ele>
        <time>2013-11-17T08:38:46Z</time>
      </trkpt>
      <trkpt lat="45.85836" lon="5.76955">
        <ele>672.1</ele>
        <time>2013-11-17T08:39:16Z</time>
      </trkpt>
      <trkpt lat="45.8584" lon="5.76911">
        <ele>675.94</ele>
        <time>2013-11-17T08:39:46Z</time>
      </trkpt>
      <trkpt lat="45.85845" lon="5.76878">
        <ele>680.27</ele>
        <time>2013-11-17T08:40:16Z</time>
      </trkpt>
      <trkpt lat="45.85851" lon="5.7692">
        <ele>683.63</ele>
        <time>2013-11-17T08:40:46Z</time>
      </trkpt>
      <trkpt lat="45.85857" lon="5.76959">
        <ele>687</ele>
        <time>2013-11-17T08:41:16Z</time>
      </trkpt>
      <trkpt lat="45.85865" lon="5.76997">
        <ele>690.84</ele>
        <time>2013-11-17T08:41:46Z</time>
      </trkpt>
      <trkpt lat="45.8588" lon="5.77031">
        <ele>694.69</ele>
        <time>2013-11-17T08:42:16Z</time>
      </trkpt>
      <trkpt lat="45.85894" lon="5.77074">
        <ele>699.02</ele>
        <time>2013-11-17T08:42:46Z</time>
      </trkpt>
      <trkpt lat="45.85908" lon="5.77101">
        <ele>702.86</ele>
        <time>2013-11-17T08:43:16Z</time>
      </trkpt>
      <trkpt lat="45.85906" lon="5.77064">
        <ele>707.67</ele>
        <time>2013-11-17T08:43:46Z</time>
      </trkpt>
      <trkpt lat="45.85905" lon="5.77021">
        <ele>711.03</ele>
        <time>2013-11-17T08:44:16Z</time>
      </trkpt>
      <trkpt lat="45.85904" lon="5.76978">
        <ele>714.4</ele>
        <time>2013-11-17T08:44:46Z</time>
      </trkpt>
      <trkpt lat="45.85916" lon="5.76939">
        <ele>718.24</ele>
        <time>2013-11-17T08:45:16Z</time>
      </trkpt>
      <trkpt lat="45.85927" lon="5.76903">
        <ele>722.09</ele>
        <time>2013-11-17T08:45:46Z</time>
      </trkpt>
      <trkpt lat="45.85928" lon="5.76867">
        <ele>725.93</ele>
        <time>2013-11-17T08:46:16Z</time>
      </trkpt>
      <trkpt lat="45.85929" lon="5.76821">
        <ele>730.26</ele>
        <time>2013-11-17T08:46:46Z</time>
      </trkpt>
      <trkpt lat="45.85928" lon="5.76784">
        <ele>733.62</ele>
        <time>2013-11-17T08:47:16Z</time>
      </trkpt>
      <trkpt lat="45.85909" lon="5.76752">
        <ele>737.47</ele>
        <time>2013-11-17T08:47:46Z</time>
      </trkpt>
      <trkpt lat="45.85907" lon="5.76709">
        <ele>740.83</ele>
        <time>2013-11-17T08:48:16Z</time>
      </trkpt>
      <trkpt lat="45.85892" lon="5.76672">
        <ele>744.68</ele>
        <time>2013-11-17T08:48:46Z</time>
      </trkpt>
      <trkpt lat="45.85868" lon="5.7665">
        <ele>749</ele>
        <time>2013-11-17T08:49:16Z</time>
      </trkpt>
      <trkpt lat="45.85847" lon="5.76631">
        <ele>751.41</ele>
        <time>2013-11-17T08:49:46Z</time>
      </trkpt>
      <trkpt lat="45.8585" lon="5.76624">
        <ele>751.41</ele>
        <time>2013-11-17T08:50:16Z</time>
      </trkpt>
      <trkpt lat="45.85876" lon="5.76628">
        <ele>755.73</ele>
        <time>2013-11-17T08:50:46Z</time>
      </trkpt>
      <trkpt lat="45.85905" lon="5.76637">
        <ele>760.06</ele>
        <time>2013-11-17T08:51:16Z</time>
      </trkpt>
      <trkpt lat="45.85932" lon="5.76656">
        <ele>763.42</ele>
        <time>2013-11-17T08:51:46Z</time>
      </trkpt>
      <trkpt lat="45.85957" lon="5.76682">
        <ele>766.31</ele>
        <time>2013-11-17T08:52:16Z</time>
      </trkpt>
      <trkpt lat="45.85976" lon="5.76708">
        <ele>770.15</ele>
        <time>2013-11-17T08:52:46Z</time>
      </trkpt>
      <trkpt lat="45.85991" lon="5.76745">
        <ele>774.48</ele>
        <time>2013-11-17T08:53:16Z</time>
      </trkpt>
      <trkpt lat="45.86008" lon="5.76781">
        <ele>777.84</ele>
        <time>2013-11-17T08:53:46Z</time>
      </trkpt>
      <trkpt lat="45.86014" lon="5.7682">
        <ele>781.69</ele>
        <time>2013-11-17T08:54:16Z</time>
      </trkpt>
      <trkpt lat="45.86024" lon="5.76851">
        <ele>786.02</ele>
        <time>2013-11-17T08:54:46Z</time>
      </trkpt>
      <trkpt lat="45.86029" lon="5.76807">
        <ele>789.86</ele>
        <time>2013-11-17T08:55:16Z</time>
      </trkpt>
      <trkpt lat="45.86034" lon="5.76766">
        <ele>793.22</ele>
        <time>2013-11-17T08:55:46Z</time>
      </trkpt>
      <trkpt lat="45.8604" lon="5.76723">
        <ele>797.07</ele>
        <time>2013-11-17T08:56:16Z</time>
      </trkpt>
      <trkpt lat="45.8605" lon="5.76686">
        <ele>800.44</ele>
        <time>2013-11-17T08:56:46Z</time>
      </trkpt>
      <trkpt lat="45.86062" lon="5.76692">
        <ele>804.76</ele>
        <time>2013-11-17T08:57:16Z</time>
      </trkpt>
      <trkpt lat="45.86065" lon="5.76736">
        <ele>808.13</ele>
        <time>2013-11-17T08:57:46Z</time>
      </trkpt>
      <trkpt lat="45.8607" lon="5.76779">
        <ele>811.97</ele>
        <time>2013-11-17T08:58:16Z</time>
      </trkpt>
      <trkpt lat="45.86075" lon="5.7682">
        <ele>814.85</ele>
        <time>2013-11-17T08:58:46Z</time>
      </trkpt>
      <trkpt lat="45.86079" lon="5.7686">
        <ele>818.7</ele>
        <time>2013-11-17T08:59:16Z</time>
      </trkpt>
      <trkpt lat="45.86089" lon="5.76896">
        <ele>822.55</ele>
        <time>2013-11-17T08:59:46Z</time>
      </trkpt>
      <trkpt lat="45.86101" lon="5.76936">
        <ele>826.87</ele>
        <time>2013-11-17T09:00:16Z</time>
      </trkpt>
      <trkpt lat="45.86104" lon="5.76979">
        <ele>829.76</ele>
        <time>2013-11-17T09:00:46Z</time>
      </trkpt>
      <trkpt lat="45.86111" lon="5.77017">
        <ele>833.6</ele>
        <time>2013-11-17T09:01:16Z</time>
      </trkpt>
      <trkpt lat="45.86118" lon="5.77055">
        <ele>836.96</ele>
        <time>2013-11-17T09:01:46Z</time>
      </trkpt>
      <trkpt lat="45.8613" lon="5.77092">
        <ele>840.81</ele>
        <time>2013-11-17T09:02:16Z</time>
      </trkpt>
      <trkpt lat="45.86137" lon="5.77129">
        <ele>844.66</ele>
        <time>2013-11-17T09:02:46Z</time>
      </trkpt>
      <trkpt lat="45.8615" lon="5.77151">
        <ele>849.46</ele>
        <time>2013-11-17T09:03:16Z</time>
      </trkpt>
      <trkpt lat="45.86148" lon="5.77111">
        <ele>853.31</ele>
        <time>2013-11-17T09:03:46Z</time>
      </trkpt>
      <trkpt lat="45.86147" lon="5.77077">
        <ele>856.67</ele>
        <time>2013-11-17T09:04:16Z</time>
      </trkpt>
      <trkpt lat="45.8615" lon="5.77035">
        <ele>860.04</ele>
        <time>2013-11-17T09:04:46Z</time>
      </trkpt>
      <trkpt lat="45.86158" lon="5.76992">
        <ele>863.4</ele>
        <time>2013-11-17T09:05:16Z</time>
      </trkpt>
      <trkpt lat="45.86161" lon="5.76951">
        <ele>867.25</ele>
        <time>2013-11-17T09:05:46Z</time>
      </trkpt>
      <trkpt lat="45.86162" lon="5.76916">
        <ele>870.61</ele>
        <time>2013-11-17T09:06:16Z</time>
      </trkpt>
      <trkpt lat="45.86167" lon="5.76873">
        <ele>873.5</ele>
        <time>2013-11-17T09:06:46Z</time>
      </trkpt>
      <trkpt lat="45.86175" lon="5.76831">
        <ele>877.34</ele>
        <time>2013-11-17T09:07:16Z</time>
      </trkpt>
      <trkpt lat="45.86185" lon="5.76792">
        <ele>880.71</ele>
        <time>2013-11-17T09:07:46Z</time>
      </trkpt>
      <trkpt lat="45.86192" lon="5.76762">
        <ele>885.03</ele>
        <time>2013-11-17T09:08:16Z</time>
      </trkpt>
      <trkpt lat="45.86196" lon="5.76796">
        <ele>888.4</ele>
        <time>2013-11-17T09:08:46Z</time>
      </trkpt>
      <trkpt lat="45.86197" lon="5.76836">
        <ele>892.24</ele>
        <time>2013-11-17T09:09:16Z</time>
      </trkpt>
      <trkpt lat="45.86199" lon="5.76875">
        <ele>895.12</ele>
        <time>2013-11-17T09:09:46Z</time>
      </trkpt>
      <trkpt lat="45.86199" lon="5.7691">
        <ele>898.01</ele>
        <time>2013-11-17T09:10:16Z</time>
      </trkpt>
      <trkpt lat="45.86206" lon="5.76949">
        <ele>901.37</ele>
        <time>2013-11-17T09:10:46Z</time>
      </trkpt>
      <trkpt lat="45.86215" lon="5.76984">
        <ele>905.22</ele>
        <time>2013-11-17T09:11:16Z</time>
      </trkpt>
      <trkpt lat="45.86215" lon="5.77023">
        <ele>908.58</ele>
        <time>2013-11-17T09:11:46Z</time>
      </trkpt>
      <trkpt lat="45.86213" lon="5.77064">
        <ele>912.43</ele>
        <time>2013-11-17T09:12:16Z</time>
      </trkpt>
      <trkpt lat="45.86218" lon="5.77103">
        <ele>916.75</ele>
        <time>2013-11-17T09:12:46Z</time>
      </trkpt>
      <trkpt lat="45.86224" lon="5.77137">
        <ele>920.6</ele>
        <time>2013-11-17T09:13:16Z</time>
      </trkpt>
      <trkpt lat="45.86228" lon="5.77137">
        <ele>922.52</ele>
        <time>2013-11-17T09:13:46Z</time>
      </trkpt>
      <trkpt lat="45.86225" lon="5.7713">
        <ele>920.6</ele>
        <time>2013-11-17T09:14:16Z</time>
      </trkpt>
      <trkpt lat="45.86225" lon="5.7713">
        <ele>920.6</ele>
        <time>2013-11-17T09:14:46Z</time>
      </trkpt>
      <trkpt lat="45.86227" lon="5.77128">
        <ele>920.6</ele>
        <time>2013-11-17T09:15:16Z</time>
      </trkpt>
      <trkpt lat="45.86225" lon="5.77132">
        <ele>920.6</ele>
        <time>2013-11-17T09:15:46Z</time>
      </trkpt>
      <trkpt lat="45.86224" lon="5.77134">
        <ele>920.6</ele>
        <time>2013-11-17T09:16:16Z</time>
      </trkpt>
      <trkpt lat="45.86225" lon="5.77131">
        <ele>921.08</ele>
        <time>2013-11-17T09:16:46Z</time>
      </trkpt>
      <trkpt lat="45.86223" lon="5.7713">
        <ele>921.08</ele>
        <time>2013-11-17T09:17:16Z</time>
      </trkpt>
      <trkpt lat="45.86222" lon="5.77133">
        <ele>922.52</ele>
        <time>2013-11-17T09:17:46Z</time>
      </trkpt>
      <trkpt lat="45.8622" lon="5.77132">
        <ele>922.52</ele>
        <time>2013-11-17T09:18:16Z</time>
      </trkpt>
      <trkpt lat="45.86225" lon="5.77135">
        <ele>923.48</ele>
        <time>2013-11-17T09:18:46Z</time>
      </trkpt>
      <trkpt lat="45.86227" lon="5.77099">
        <ele>926.37</ele>
        <time>2013-11-17T09:19:16Z</time>
      </trkpt>
      <trkpt lat="45.86233" lon="5.77059">
        <ele>929.73</ele>
        <time>2013-11-17T09:19:46Z</time>
      </trkpt>
      <trkpt lat="45.86245" lon="5.77025">
        <ele>933.1</ele>
        <time>2013-11-17T09:20:16Z</time>
      </trkpt>
      <trkpt lat="45.86255" lon="5.76984">
        <ele>937.42</ele>
        <time>2013-11-17T09:20:46Z</time>
      </trkpt>
      <trkpt lat="45.86259" lon="5.76943">
        <ele>940.79</ele>
        <time>2013-11-17T09:21:16Z</time>
      </trkpt>
      <trkpt lat="45.86265" lon="5.76905">
        <ele>944.63</ele>
        <time>2013-11-17T09:21:46Z</time>
      </trkpt>
      <trkpt lat="45.86272" lon="5.76864">
        <ele>948.48</ele>
        <time>2013-11-17T09:22:16Z</time>
      </trkpt>
      <trkpt lat="45.86285" lon="5.76832">
        <ele>952.32</ele>
        <time>2013-11-17T09:22:46Z</time>
      </trkpt>
      <trkpt lat="45.8629" lon="5.76833">
        <ele>956.65</ele>
        <time>2013-11-17T09:23:16Z</time>
      </trkpt>
      <trkpt lat="45.86286" lon="5.76871">
        <ele>959.53</ele>
        <time>2013-11-17T09:23:46Z</time>
      </trkpt>
      <trkpt lat="45.86287" lon="5.76906">
        <ele>963.38</ele>
        <time>2013-11-17T09:24:16Z</time>
      </trkpt>
      <trkpt lat="45.86288" lon="5.7695">
        <ele>966.26</ele>
        <time>2013-11-17T09:24:46Z</time>
      </trkpt>
      <trkpt lat="45.86294" lon="5.76954">
        <ele>970.59</ele>
        <time>2013-11-17T09:25:16Z</time>
      </trkpt>
      <trkpt lat="45.86297" lon="5.76917">
        <ele>974.43</ele>
        <time>2013-11-17T09:25:46Z</time>
      </trkpt>
      <trkpt lat="45.86305" lon="5.76882">
        <ele>977.8</ele>
        <time>2013-11-17T09:26:16Z</time>
      </trkpt>
      <trkpt lat="45.86321" lon="5.76866">
        <ele>982.6</ele>
        <time>2013-11-17T09:26:46Z</time>
      </trkpt>
      <trkpt lat="45.86321" lon="5.76893">
        <ele>986.93</ele>
        <time>2013-11-17T09:27:15Z</time>
      </trkpt>
      <trkpt lat="45.86326" lon="5.76913">
        <ele>991.26</ele>
        <time>2013-11-17T09:27:46Z</time>
      </trkpt>
      <trkpt lat="45.8633" lon="5.76887">
        <ele>994.62</ele>
        <time>2013-11-17T09:28:16Z</time>
      </trkpt>
      <trkpt lat="45.86344" lon="5.76865">
        <ele>998.47</ele>
        <time>2013-11-17T09:28:46Z</time>
      </trkpt>
      <trkpt lat="45.86339" lon="5.76895">
        <ele>1001.83</ele>
        <time>2013-11-17T09:29:16Z</time>
      </trkpt>
      <trkpt lat="45.86335" lon="5.76928">
        <ele>1005.2</ele>
        <time>2013-11-17T09:29:46Z</time>
      </trkpt>
      <trkpt lat="45.86337" lon="5.76963">
        <ele>1008.08</ele>
        <time>2013-11-17T09:30:16Z</time>
      </trkpt>
      <trkpt lat="45.8634" lon="5.77002">
        <ele>1010.96</ele>
        <time>2013-11-17T09:30:46Z</time>
      </trkpt>
      <trkpt lat="45.86334" lon="5.77039">
        <ele>1014.33</ele>
        <time>2013-11-17T09:31:16Z</time>
      </trkpt>
      <trkpt lat="45.8632" lon="5.77063">
        <ele>1018.65</ele>
        <time>2013-11-17T09:31:46Z</time>
      </trkpt>
      <trkpt lat="45.86312" lon="5.77074">
        <ele>1020.1</ele>
        <time>2013-11-17T09:32:16Z</time>
      </trkpt>
      <trkpt lat="45.86312" lon="5.77074">
        <ele>1020.1</ele>
        <time>2013-11-17T09:32:46Z</time>
      </trkpt>
      <trkpt lat="45.86311" lon="5.77073">
        <ele>1020.58</ele>
        <time>2013-11-17T09:33:16Z</time>
      </trkpt>
      <trkpt lat="45.8631" lon="5.77072">
        <ele>1020.58</ele>
        <time>2013-11-17T09:33:46Z</time>
      </trkpt>
      <trkpt lat="45.86309" lon="5.77086">
        <ele>1021.06</ele>
        <time>2013-11-17T09:34:16Z</time>
      </trkpt>
      <trkpt lat="45.86312" lon="5.77122">
        <ele>1024.9</ele>
        <time>2013-11-17T09:34:46Z</time>
      </trkpt>
      <trkpt lat="45.86325" lon="5.77156">
        <ele>1028.27</ele>
        <time>2013-11-17T09:35:16Z</time>
      </trkpt>
      <trkpt lat="45.86332" lon="5.77187">
        <ele>1032.11</ele>
        <time>2013-11-17T09:35:46Z</time>
      </trkpt>
      <trkpt lat="45.8633" lon="5.77218">
        <ele>1035</ele>
        <time>2013-11-17T09:36:16Z</time>
      </trkpt>
      <trkpt lat="45.86334" lon="5.77261">
        <ele>1037.88</ele>
        <time>2013-11-17T09:36:46Z</time>
      </trkpt>
      <trkpt lat="45.86345" lon="5.77296">
        <ele>1041.73</ele>
        <time>2013-11-17T09:37:16Z</time>
      </trkpt>
      <trkpt lat="45.86349" lon="5.77328">
        <ele>1045.57</ele>
        <time>2013-11-17T09:37:46Z</time>
      </trkpt>
      <trkpt lat="45.86355" lon="5.77366">
        <ele>1048.45</ele>
        <time>2013-11-17T09:38:16Z</time>
      </trkpt>
      <trkpt lat="45.86365" lon="5.77391">
        <ele>1051.82</ele>
        <time>2013-11-17T09:38:46Z</time>
      </trkpt>
      <trkpt lat="45.86378" lon="5.7742">
        <ele>1055.18</ele>
        <time>2013-11-17T09:39:16Z</time>
      </trkpt>
      <trkpt lat="45.86392" lon="5.77447">
        <ele>1058.55</ele>
        <time>2013-11-17T09:39:46Z</time>
      </trkpt>
      <trkpt lat="45.86408" lon="5.77478">
        <ele>1061.43</ele>
        <time>2013-11-17T09:40:16Z</time>
      </trkpt>
      <trkpt lat="45.86419" lon="5.77522">
        <ele>1064.8</ele>
        <time>2013-11-17T09:40:46Z</time>
      </trkpt>
      <trkpt lat="45.86426" lon="5.77553">
        <ele>1068.16</ele>
        <time>2013-11-17T09:41:16Z</time>
      </trkpt>
      <trkpt lat="45.86438" lon="5.77586">
        <ele>1072.01</ele>
        <time>2013-11-17T09:41:46Z</time>
      </trkpt>
      <trkpt lat="45.86449" lon="5.77617">
        <ele>1075.85</ele>
        <time>2013-11-17T09:42:16Z</time>
      </trkpt>
      <trkpt lat="45.86458" lon="5.77647">
        <ele>1079.22</ele>
        <time>2013-11-17T09:42:46Z</time>
      </trkpt>
      <trkpt lat="45.86469" lon="5.7768">
        <ele>1082.58</ele>
        <time>2013-11-17T09:43:16Z</time>
      </trkpt>
      <trkpt lat="45.86476" lon="5.77722">
        <ele>1085.47</ele>
        <time>2013-11-17T09:43:46Z</time>
      </trkpt>
      <trkpt lat="45.86485" lon="5.7776">
        <ele>1088.83</ele>
        <time>2013-11-17T09:44:16Z</time>
      </trkpt>
      <trkpt lat="45.865" lon="5.77794">
        <ele>1091.71</ele>
        <time>2013-11-17T09:44:46Z</time>
      </trkpt>
      <trkpt lat="45.86521" lon="5.77817">
        <ele>1095.56</ele>
        <time>2013-11-17T09:45:16Z</time>
      </trkpt>
      <trkpt lat="45.86541" lon="5.77848">
        <ele>1098.44</ele>
        <time>2013-11-17T09:45:46Z</time>
      </trkpt>
      <trkpt lat="45.86562" lon="5.77879">
        <ele>1102.29</ele>
        <time>2013-11-17T09:46:16Z</time>
      </trkpt>
      <trkpt lat="45.86578" lon="5.77907">
        <ele>1105.65</ele>
        <time>2013-11-17T09:46:46Z</time>
      </trkpt>
      <trkpt lat="45.86601" lon="5.77915">
        <ele>1109.02</ele>
        <time>2013-11-17T09:47:16Z</time>
      </trkpt>
      <trkpt lat="45.86628" lon="5.77919">
        <ele>1113.34</ele>
        <time>2013-11-17T09:47:46Z</time>
      </trkpt>
      <trkpt lat="45.86653" lon="5.77899">
        <ele>1116.71</ele>
        <time>2013-11-17T09:48:16Z</time>
      </trkpt>
      <trkpt lat="45.86675" lon="5.77886">
        <ele>1120.07</ele>
        <time>2013-11-17T09:48:46Z</time>
      </trkpt>
      <trkpt lat="45.86694" lon="5.77876">
        <ele>1122.96</ele>
        <time>2013-11-17T09:49:16Z</time>
      </trkpt>
      <trkpt lat="45.86703" lon="5.77873">
        <ele>1123.92</ele>
        <time>2013-11-17T09:49:46Z</time>
      </trkpt>
      <trkpt lat="45.86701" lon="5.77877">
        <ele>1123.92</ele>
        <time>2013-11-17T09:50:16Z</time>
      </trkpt>
      <trkpt lat="45.8672" lon="5.77861">
        <ele>1127.28</ele>
        <time>2013-11-17T09:50:46Z</time>
      </trkpt>
      <trkpt lat="45.86741" lon="5.77845">
        <ele>1132.09</ele>
        <time>2013-11-17T09:51:16Z</time>
      </trkpt>
      <trkpt lat="45.86725" lon="5.77835">
        <ele>1134.49</ele>
        <time>2013-11-17T09:51:46Z</time>
      </trkpt>
      <trkpt lat="45.86698" lon="5.77826">
        <ele>1137.86</ele>
        <time>2013-11-17T09:52:16Z</time>
      </trkpt>
      <trkpt lat="45.86673" lon="5.77809">
        <ele>1140.74</ele>
        <time>2013-11-17T09:52:46Z</time>
      </trkpt>
      <trkpt lat="45.86657" lon="5.77785">
        <ele>1143.63</ele>
        <time>2013-11-17T09:53:16Z</time>
      </trkpt>
      <trkpt lat="45.86663" lon="5.77749">
        <ele>1147.47</ele>
        <time>2013-11-17T09:53:46Z</time>
      </trkpt>
      <trkpt lat="45.86688" lon="5.77725">
        <ele>1149.87</ele>
        <time>2013-11-17T09:54:16Z</time>
      </trkpt>
      <trkpt lat="45.86704" lon="5.77692">
        <ele>1153.24</ele>
        <time>2013-11-17T09:54:46Z</time>
      </trkpt>
      <trkpt lat="45.86689" lon="5.77666">
        <ele>1156.6</ele>
        <time>2013-11-17T09:55:16Z</time>
      </trkpt>
      <trkpt lat="45.86671" lon="5.77637">
        <ele>1159.97</ele>
        <time>2013-11-17T09:55:46Z</time>
      </trkpt>
      <trkpt lat="45.86655" lon="5.77603">
        <ele>1163.33</ele>
        <time>2013-11-17T09:56:16Z</time>
      </trkpt>
      <trkpt lat="45.86645" lon="5.77566">
        <ele>1166.7</ele>
        <time>2013-11-17T09:56:46Z</time>
      </trkpt>
      <trkpt lat="45.86628" lon="5.7754">
        <ele>1170.06</ele>
        <time>2013-11-17T09:57:16Z</time>
      </trkpt>
      <trkpt lat="45.866" lon="5.77533">
        <ele>1173.43</ele>
        <time>2013-11-17T09:57:46Z</time>
      </trkpt>
      <trkpt lat="45.86576" lon="5.77513">
        <ele>1176.79</ele>
        <time>2013-11-17T09:58:16Z</time>
      </trkpt>
      <trkpt lat="45.86561" lon="5.77473">
        <ele>1179.19</ele>
        <time>2013-11-17T09:58:46Z</time>
      </trkpt>
      <trkpt lat="45.86534" lon="5.77454">
        <ele>1177.27</ele>
        <time>2013-11-17T09:59:16Z</time>
      </trkpt>
      <trkpt lat="45.86512" lon="5.77444">
        <ele>1174.39</ele>
        <time>2013-11-17T09:59:46Z</time>
      </trkpt>
      <trkpt lat="45.86493" lon="5.77431">
        <ele>1171.5</ele>
        <time>2013-11-17T10:00:16Z</time>
      </trkpt>
      <trkpt lat="45.86488" lon="5.7743">
        <ele>1170.54</ele>
        <time>2013-11-17T10:00:46Z</time>
      </trkpt>
      <trkpt lat="45.86487" lon="5.7743">
        <ele>1169.58</ele>
        <time>2013-11-17T10:01:16Z</time>
      </trkpt>
      <trkpt lat="45.86486" lon="5.77435">
        <ele>1169.1</ele>
        <time>2013-11-17T10:01:46Z</time>
      </trkpt>
      <trkpt lat="45.86481" lon="5.77433">
        <ele>1167.66</ele>
        <time>2013-11-17T10:02:16Z</time>
      </trkpt>
      <trkpt lat="45.8648" lon="5.77435">
        <ele>1167.66</ele>
        <time>2013-11-17T10:02:46Z</time>
      </trkpt>
      <trkpt lat="45.86484" lon="5.77433">
        <ele>1167.66</ele>
        <time>2013-11-17T10:03:16Z</time>
      </trkpt>
      <trkpt lat="45.8648" lon="5.77436">
        <ele>1167.66</ele>
        <time>2013-11-17T10:03:46Z</time>
      </trkpt>
      <trkpt lat="45.86476" lon="5.77439">
        <ele>1167.66</ele>
        <time>2013-11-17T10:04:16Z</time>
      </trkpt>
      <trkpt lat="45.86478" lon="5.7744">
        <ele>1167.66</ele>
        <time>2013-11-17T10:04:46Z</time>
      </trkpt>
      <trkpt lat="45.86479" lon="5.77437">
        <ele>1168.14</ele>
        <time>2013-11-17T10:05:16Z</time>
      </trkpt>
      <trkpt lat="45.86484" lon="5.77436">
        <ele>1168.14</ele>
        <time>2013-11-17T10:05:46Z</time>
      </trkpt>
      <trkpt lat="45.8648" lon="5.77434">
        <ele>1166.7</ele>
        <time>2013-11-17T10:06:16Z</time>
      </trkpt>
      <trkpt lat="45.86482" lon="5.77433">
        <ele>1168.62</ele>
        <time>2013-11-17T10:06:46Z</time>
      </trkpt>
      <trkpt lat="45.86483" lon="5.77436">
        <ele>1168.62</ele>
        <time>2013-11-17T10:07:16Z</time>
      </trkpt>
      <trkpt lat="45.86493" lon="5.77431">
        <ele>1171.5</ele>
        <time>2013-11-17T10:07:46Z</time>
      </trkpt>
      <trkpt lat="45.86509" lon="5.7744">
        <ele>1174.39</ele>
        <time>2013-11-17T10:08:16Z</time>
      </trkpt>
      <trkpt lat="45.86534" lon="5.77459">
        <ele>1177.75</ele>
        <time>2013-11-17T10:08:46Z</time>
      </trkpt>
      <trkpt lat="45.86573" lon="5.77464">
        <ele>1179.67</ele>
        <time>2013-11-17T10:09:16Z</time>
      </trkpt>
      <trkpt lat="45.86609" lon="5.77467">
        <ele>1181.6</ele>
        <time>2013-11-17T10:09:46Z</time>
      </trkpt>
      <trkpt lat="45.8663" lon="5.77434">
        <ele>1184</ele>
        <time>2013-11-17T10:10:16Z</time>
      </trkpt>
      <trkpt lat="45.86643" lon="5.77391">
        <ele>1187.37</ele>
        <time>2013-11-17T10:10:46Z</time>
      </trkpt>
      <trkpt lat="45.86655" lon="5.77351">
        <ele>1190.73</ele>
        <time>2013-11-17T10:11:16Z</time>
      </trkpt>
      <trkpt lat="45.86677" lon="5.7732">
        <ele>1194.09</ele>
        <time>2013-11-17T10:11:46Z</time>
      </trkpt>
      <trkpt lat="45.867" lon="5.77298">
        <ele>1197.94</ele>
        <time>2013-11-17T10:12:16Z</time>
      </trkpt>
      <trkpt lat="45.86726" lon="5.77291">
        <ele>1200.82</ele>
        <time>2013-11-17T10:12:46Z</time>
      </trkpt>
      <trkpt lat="45.86755" lon="5.77293">
        <ele>1202.75</ele>
        <time>2013-11-17T10:13:16Z</time>
      </trkpt>
      <trkpt lat="45.8678" lon="5.77302">
        <ele>1205.63</ele>
        <time>2013-11-17T10:13:46Z</time>
      </trkpt>
      <trkpt lat="45.86816" lon="5.77312">
        <ele>1208.03</ele>
        <time>2013-11-17T10:14:16Z</time>
      </trkpt>
      <trkpt lat="45.86851" lon="5.7731">
        <ele>1209.48</ele>
        <time>2013-11-17T10:14:46Z</time>
      </trkpt>
      <trkpt lat="45.86877" lon="5.77303">
        <ele>1211.88</ele>
        <time>2013-11-17T10:15:16Z</time>
      </trkpt>
      <trkpt lat="45.869" lon="5.77318">
        <ele>1215.24</ele>
        <time>2013-11-17T10:15:45Z</time>
      </trkpt>
      <trkpt lat="45.86927" lon="5.77334">
        <ele>1218.61</ele>
        <time>2013-11-17T10:16:16Z</time>
      </trkpt>
      <trkpt lat="45.86954" lon="5.77338">
        <ele>1221.01</ele>
        <time>2013-11-17T10:16:46Z</time>
      </trkpt>
      <trkpt lat="45.86987" lon="5.77345">
        <ele>1222.93</ele>
        <time>2013-11-17T10:17:16Z</time>
      </trkpt>
      <trkpt lat="45.87021" lon="5.77361">
        <ele>1224.86</ele>
        <time>2013-11-17T10:17:46Z</time>
      </trkpt>
      <trkpt lat="45.87052" lon="5.77365">
        <ele>1225.82</ele>
        <time>2013-11-17T10:18:16Z</time>
      </trkpt>
      <trkpt lat="45.87085" lon="5.77374">
        <ele>1228.22</ele>
        <time>2013-11-17T10:18:46Z</time>
      </trkpt>
      <trkpt lat="45.8711" lon="5.77402">
        <ele>1231.11</ele>
        <time>2013-11-17T10:19:16Z</time>
      </trkpt>
      <trkpt lat="45.87106" lon="5.77363">
        <ele>1231.59</ele>
        <time>2013-11-17T10:19:46Z</time>
      </trkpt>
      <trkpt lat="45.87097" lon="5.77322">
        <ele>1233.51</ele>
        <time>2013-11-17T10:20:16Z</time>
      </trkpt>
      <trkpt lat="45.87096" lon="5.7729">
        <ele>1235.43</ele>
        <time>2013-11-17T10:20:46Z</time>
      </trkpt>
      <trkpt lat="45.87106" lon="5.77261">
        <ele>1238.32</ele>
        <time>2013-11-17T10:21:16Z</time>
      </trkpt>
      <trkpt lat="45.87122" lon="5.77226">
        <ele>1242.16</ele>
        <time>2013-11-17T10:21:46Z</time>
      </trkpt>
      <trkpt lat="45.8713" lon="5.7719">
        <ele>1246.49</ele>
        <time>2013-11-17T10:22:16Z</time>
      </trkpt>
      <trkpt lat="45.87139" lon="5.77153">
        <ele>1250.33</ele>
        <time>2013-11-17T10:22:46Z</time>
      </trkpt>
      <trkpt lat="45.87136" lon="5.77121">
        <ele>1254.18</ele>
        <time>2013-11-17T10:23:16Z</time>
      </trkpt>
      <trkpt lat="45.87113" lon="5.77101">
        <ele>1258.02</ele>
        <time>2013-11-17T10:23:46Z</time>
      </trkpt>
      <trkpt lat="45.87094" lon="5.77084">
        <ele>1261.39</ele>
        <time>2013-11-17T10:24:16Z</time>
      </trkpt>
      <trkpt lat="45.87115" lon="5.77071">
        <ele>1265.23</ele>
        <time>2013-11-17T10:24:46Z</time>
      </trkpt>
      <trkpt lat="45.87145" lon="5.77066">
        <ele>1268.6</ele>
        <time>2013-11-17T10:25:16Z</time>
      </trkpt>
      <trkpt lat="45.8717" lon="5.77049">
        <ele>1271.48</ele>
        <time>2013-11-17T10:25:46Z</time>
      </trkpt>
      <trkpt lat="45.87158" lon="5.77028">
        <ele>1275.81</ele>
        <time>2013-11-17T10:26:16Z</time>
      </trkpt>
      <trkpt lat="45.87132" lon="5.77014">
        <ele>1279.65</ele>
        <time>2013-11-17T10:26:46Z</time>
      </trkpt>
      <trkpt lat="45.87109" lon="5.77">
        <ele>1283.5</ele>
        <time>2013-11-17T10:27:16Z</time>
      </trkpt>
      <trkpt lat="45.87131" lon="5.76983">
        <ele>1285.9</ele>
        <time>2013-11-17T10:27:46Z</time>
      </trkpt>
      <trkpt lat="45.87162" lon="5.76966">
        <ele>1287.34</ele>
        <time>2013-11-17T10:28:16Z</time>
      </trkpt>
      <trkpt lat="45.8719" lon="5.76947">
        <ele>1290.71</ele>
        <time>2013-11-17T10:28:46Z</time>
      </trkpt>
      <trkpt lat="45.87214" lon="5.76928">
        <ele>1294.55</ele>
        <time>2013-11-17T10:29:16Z</time>
      </trkpt>
      <trkpt lat="45.87219" lon="5.76897">
        <ele>1298.4</ele>
        <time>2013-11-17T10:29:46Z</time>
      </trkpt>
      <trkpt lat="45.87205" lon="5.76861">
        <ele>1301.76</ele>
        <time>2013-11-17T10:30:16Z</time>
      </trkpt>
      <trkpt lat="45.87197" lon="5.76828">
        <ele>1306.09</ele>
        <time>2013-11-17T10:30:46Z</time>
      </trkpt>
      <trkpt lat="45.8721" lon="5.76796">
        <ele>1308.49</ele>
        <time>2013-11-17T10:31:16Z</time>
      </trkpt>
      <trkpt lat="45.87211" lon="5.76755">
        <ele>1311.86</ele>
        <time>2013-11-17T10:31:46Z</time>
      </trkpt>
      <trkpt lat="45.87208" lon="5.76704">
        <ele>1313.78</ele>
        <time>2013-11-17T10:32:16Z</time>
      </trkpt>
      <trkpt lat="45.8722" lon="5.76656">
        <ele>1315.7</ele>
        <time>2013-11-17T10:32:46Z</time>
      </trkpt>
      <trkpt lat="45.87237" lon="5.76643">
        <ele>1316.66</ele>
        <time>2013-11-17T10:33:16Z</time>
      </trkpt>
      <trkpt lat="45.87239" lon="5.76643">
        <ele>1316.66</ele>
        <time>2013-11-17T10:33:46Z</time>
      </trkpt>
      <trkpt lat="45.87232" lon="5.76646">
        <ele>1316.66</ele>
        <time>2013-11-17T10:34:16Z</time>
      </trkpt>
      <trkpt lat="45.87245" lon="5.76635">
        <ele>1316.66</ele>
        <time>2013-11-17T10:34:46Z</time>
      </trkpt>
      <trkpt lat="45.87275" lon="5.76618">
        <ele>1317.14</ele>
        <time>2013-11-17T10:35:16Z</time>
      </trkpt>
      <trkpt lat="45.87307" lon="5.76598">
        <ele>1318.1</ele>
        <time>2013-11-17T10:35:46Z</time>
      </trkpt>
      <trkpt lat="45.87341" lon="5.76576">
        <ele>1318.1</ele>
        <time>2013-11-17T10:36:16Z</time>
      </trkpt>
      <trkpt lat="45.87376" lon="5.76556">
        <ele>1316.66</ele>
        <time>2013-11-17T10:36:46Z</time>
      </trkpt>
      <trkpt lat="45.87413" lon="5.76541">
        <ele>1314.74</ele>
        <time>2013-11-17T10:37:16Z</time>
      </trkpt>
      <trkpt lat="45.87447" lon="5.76525">
        <ele>1314.74</ele>
        <time>2013-11-17T10:37:46Z</time>
      </trkpt>
      <trkpt lat="45.87477" lon="5.76509">
        <ele>1314.74</ele>
        <time>2013-11-17T10:38:16Z</time>
      </trkpt>
      <trkpt lat="45.875" lon="5.76481">
        <ele>1314.74</ele>
        <time>2013-11-17T10:38:46Z</time>
      </trkpt>
      <trkpt lat="45.87529" lon="5.76476">
        <ele>1316.66</ele>
        <time>2013-11-17T10:39:16Z</time>
      </trkpt>
      <trkpt lat="45.8756" lon="5.76475">
        <ele>1318.59</ele>
        <time>2013-11-17T10:39:46Z</time>
      </trkpt>
      <trkpt lat="45.8759" lon="5.76457">
        <ele>1317.62</ele>
        <time>2013-11-17T10:40:16Z</time>
      </trkpt>
      <trkpt lat="45.87623" lon="5.76438">
        <ele>1315.7</ele>
        <time>2013-11-17T10:40:46Z</time>
      </trkpt>
      <trkpt lat="45.87652" lon="5.76426">
        <ele>1313.78</ele>
        <time>2013-11-17T10:41:16Z</time>
      </trkpt>
      <trkpt lat="45.8769" lon="5.76406">
        <ele>1313.3</ele>
        <time>2013-11-17T10:41:46Z</time>
      </trkpt>
      <trkpt lat="45.87726" lon="5.76394">
        <ele>1312.34</ele>
        <time>2013-11-17T10:42:16Z</time>
      </trkpt>
      <trkpt lat="45.87763" lon="5.76395">
        <ele>1311.38</ele>
        <time>2013-11-17T10:42:46Z</time>
      </trkpt>
      <trkpt lat="45.87799" lon="5.76394">
        <ele>1311.38</ele>
        <time>2013-11-17T10:43:16Z</time>
      </trkpt>
      <trkpt lat="45.87831" lon="5.76392">
        <ele>1310.9</ele>
        <time>2013-11-17T10:43:46Z</time>
      </trkpt>
      <trkpt lat="45.87867" lon="5.76388">
        <ele>1310.9</ele>
        <time>2013-11-17T10:44:16Z</time>
      </trkpt>
      <trkpt lat="45.87898" lon="5.76376">
        <ele>1313.3</ele>
        <time>2013-11-17T10:44:46Z</time>
      </trkpt>
      <trkpt lat="45.87932" lon="5.76361">
        <ele>1312.82</ele>
        <time>2013-11-17T10:45:16Z</time>
      </trkpt>
      <trkpt lat="45.87952" lon="5.76351">
        <ele>1311.86</ele>
        <time>2013-11-17T10:45:46Z</time>
      </trkpt>
      <trkpt lat="45.87953" lon="5.76349">
        <ele>1311.86</ele>
        <time>2013-11-17T10:46:16Z</time>
      </trkpt>
      <trkpt lat="45.87979" lon="5.76341">
        <ele>1311.86</ele>
        <time>2013-11-17T10:46:46Z</time>
      </trkpt>
      <trkpt lat="45.88001" lon="5.76321">
        <ele>1315.7</ele>
        <time>2013-11-17T10:47:16Z</time>
      </trkpt>
      <trkpt lat="45.88039" lon="5.76314">
        <ele>1317.62</ele>
        <time>2013-11-17T10:47:46Z</time>
      </trkpt>
      <trkpt lat="45.88068" lon="5.76299">
        <ele>1320.51</ele>
        <time>2013-11-17T10:48:16Z</time>
      </trkpt>
      <trkpt lat="45.8809" lon="5.76274">
        <ele>1320.03</ele>
        <time>2013-11-17T10:48:46Z</time>
      </trkpt>
      <trkpt lat="45.88116" lon="5.76267">
        <ele>1321.95</ele>
        <time>2013-11-17T10:49:16Z</time>
      </trkpt>
      <trkpt lat="45.88139" lon="5.76249">
        <ele>1324.35</ele>
        <time>2013-11-17T10:49:46Z</time>
      </trkpt>
      <trkpt lat="45.88171" lon="5.76238">
        <ele>1326.28</ele>
        <time>2013-11-17T10:50:16Z</time>
      </trkpt>
      <trkpt lat="45.88198" lon="5.76209">
        <ele>1327.24</ele>
        <time>2013-11-17T10:50:46Z</time>
      </trkpt>
      <trkpt lat="45.88227" lon="5.76187">
        <ele>1329.16</ele>
        <time>2013-11-17T10:51:16Z</time>
      </trkpt>
      <trkpt lat="45.88262" lon="5.76173">
        <ele>1331.56</ele>
        <time>2013-11-17T10:51:46Z</time>
      </trkpt>
      <trkpt lat="45.88293" lon="5.76157">
        <ele>1334.93</ele>
        <time>2013-11-17T10:52:16Z</time>
      </trkpt>
      <trkpt lat="45.88321" lon="5.76134">
        <ele>1338.29</ele>
        <time>2013-11-17T10:52:46Z</time>
      </trkpt>
      <trkpt lat="45.88353" lon="5.76118">
        <ele>1342.14</ele>
        <time>2013-11-17T10:53:16Z</time>
      </trkpt>
      <trkpt lat="45.88383" lon="5.76101">
        <ele>1345.98</ele>
        <time>2013-11-17T10:53:46Z</time>
      </trkpt>
      <trkpt lat="45.88414" lon="5.76093">
        <ele>1349.35</ele>
        <time>2013-11-17T10:54:16Z</time>
      </trkpt>
      <trkpt lat="45.88441" lon="5.76079">
        <ele>1351.75</ele>
        <time>2013-11-17T10:54:46Z</time>
      </trkpt>
      <trkpt lat="45.88473" lon="5.76065">
        <ele>1355.12</ele>
        <time>2013-11-17T10:55:16Z</time>
      </trkpt>
      <trkpt lat="45.8851" lon="5.76057">
        <ele>1357.52</ele>
        <time>2013-11-17T10:55:46Z</time>
      </trkpt>
      <trkpt lat="45.88548" lon="5.76055">
        <ele>1358</ele>
        <time>2013-11-17T10:56:16Z</time>
      </trkpt>
      <trkpt lat="45.88583" lon="5.76053">
        <ele>1358.48</ele>
        <time>2013-11-17T10:56:46Z</time>
      </trkpt>
      <trkpt lat="45.8862" lon="5.76057">
        <ele>1359.44</ele>
        <time>2013-11-17T10:57:16Z</time>
      </trkpt>
      <trkpt lat="45.88656" lon="5.76061">
        <ele>1359.92</ele>
        <time>2013-11-17T10:57:46Z</time>
      </trkpt>
      <trkpt lat="45.88692" lon="5.76065">
        <ele>1360.88</ele>
        <time>2013-11-17T10:58:16Z</time>
      </trkpt>
      <trkpt lat="45.88727" lon="5.76074">
        <ele>1361.36</ele>
        <time>2013-11-17T10:58:46Z</time>
      </trkpt>
      <trkpt lat="45.88763" lon="5.76081">
        <ele>1361.84</ele>
        <time>2013-11-17T10:59:16Z</time>
      </trkpt>
      <trkpt lat="45.88798" lon="5.76089">
        <ele>1362.81</ele>
        <time>2013-11-17T10:59:46Z</time>
      </trkpt>
      <trkpt lat="45.88835" lon="5.76095">
        <ele>1364.25</ele>
        <time>2013-11-17T11:00:16Z</time>
      </trkpt>
      <trkpt lat="45.88871" lon="5.76098">
        <ele>1366.65</ele>
        <time>2013-11-17T11:00:46Z</time>
      </trkpt>
      <trkpt lat="45.88907" lon="5.76099">
        <ele>1370.02</ele>
        <time>2013-11-17T11:01:16Z</time>
      </trkpt>
      <trkpt lat="45.88938" lon="5.76101">
        <ele>1371.94</ele>
        <time>2013-11-17T11:01:46Z</time>
      </trkpt>
      <trkpt lat="45.88976" lon="5.76105">
        <ele>1374.82</ele>
        <time>2013-11-17T11:02:16Z</time>
      </trkpt>
      <trkpt lat="45.89011" lon="5.76108">
        <ele>1377.23</ele>
        <time>2013-11-17T11:02:46Z</time>
      </trkpt>
      <trkpt lat="45.89048" lon="5.7611">
        <ele>1380.11</ele>
        <time>2013-11-17T11:03:16Z</time>
      </trkpt>
      <trkpt lat="45.89085" lon="5.76111">
        <ele>1383.47</ele>
        <time>2013-11-17T11:03:46Z</time>
      </trkpt>
      <trkpt lat="45.89122" lon="5.76112">
        <ele>1386.84</ele>
        <time>2013-11-17T11:04:16Z</time>
      </trkpt>
      <trkpt lat="45.89159" lon="5.76116">
        <ele>1390.2</ele>
        <time>2013-11-17T11:04:46Z</time>
      </trkpt>
      <trkpt lat="45.89198" lon="5.7612">
        <ele>1393.57</ele>
        <time>2013-11-17T11:05:16Z</time>
      </trkpt>
      <trkpt lat="45.89235" lon="5.76125">
        <ele>1397.41</ele>
        <time>2013-11-17T11:05:46Z</time>
      </trkpt>
      <trkpt lat="45.89274" lon="5.76132">
        <ele>1399.82</ele>
        <time>2013-11-17T11:06:16Z</time>
      </trkpt>
      <trkpt lat="45.89313" lon="5.7614">
        <ele>1400.78</ele>
        <time>2013-11-17T11:06:46Z</time>
      </trkpt>
      <trkpt lat="45.8935" lon="5.76151">
        <ele>1401.26</ele>
        <time>2013-11-17T11:07:16Z</time>
      </trkpt>
      <trkpt lat="45.8939" lon="5.76161">
        <ele>1402.7</ele>
        <time>2013-11-17T11:07:46Z</time>
      </trkpt>
      <trkpt lat="45.89427" lon="5.7617">
        <ele>1403.18</ele>
        <time>2013-11-17T11:08:16Z</time>
      </trkpt>
      <trkpt lat="45.89468" lon="5.76181">
        <ele>1404.62</ele>
        <time>2013-11-17T11:08:46Z</time>
      </trkpt>
      <trkpt lat="45.89506" lon="5.76185">
        <ele>1405.58</ele>
        <time>2013-11-17T11:09:16Z</time>
      </trkpt>
      <trkpt lat="45.89546" lon="5.76187">
        <ele>1406.07</ele>
        <time>2013-11-17T11:09:46Z</time>
      </trkpt>
      <trkpt lat="45.89586" lon="5.76189">
        <ele>1406.55</ele>
        <time>2013-11-17T11:10:16Z</time>
      </trkpt>
      <trkpt lat="45.89622" lon="5.76194">
        <ele>1407.99</ele>
        <time>2013-11-17T11:10:46Z</time>
      </trkpt>
      <trkpt lat="45.89658" lon="5.76206">
        <ele>1410.87</ele>
        <time>2013-11-17T11:11:16Z</time>
      </trkpt>
      <trkpt lat="45.89694" lon="5.76218">
        <ele>1414.24</ele>
        <time>2013-11-17T11:11:46Z</time>
      </trkpt>
      <trkpt lat="45.8973" lon="5.76234">
        <ele>1417.6</ele>
        <time>2013-11-17T11:12:16Z</time>
      </trkpt>
      <trkpt lat="45.89764" lon="5.76247">
        <ele>1420</ele>
        <time>2013-11-17T11:12:46Z</time>
      </trkpt>
      <trkpt lat="45.89799" lon="5.76259">
        <ele>1422.41</ele>
        <time>2013-11-17T11:13:16Z</time>
      </trkpt>
      <trkpt lat="45.89836" lon="5.76274">
        <ele>1425.29</ele>
        <time>2013-11-17T11:13:46Z</time>
      </trkpt>
      <trkpt lat="45.89872" lon="5.76292">
        <ele>1427.7</ele>
        <time>2013-11-17T11:14:16Z</time>
      </trkpt>
      <trkpt lat="45.89906" lon="5.76317">
        <ele>1431.06</ele>
        <time>2013-11-17T11:14:46Z</time>
      </trkpt>
      <trkpt lat="45.89939" lon="5.76346">
        <ele>1434.42</ele>
        <time>2013-11-17T11:15:16Z</time>
      </trkpt>
      <trkpt lat="45.89976" lon="5.76353">
        <ele>1436.83</ele>
        <time>2013-11-17T11:15:46Z</time>
      </trkpt>
      <trkpt lat="45.90004" lon="5.76341">
        <ele>1440.67</ele>
        <time>2013-11-17T11:16:16Z</time>
      </trkpt>
      <trkpt lat="45.90036" lon="5.76328">
        <ele>1443.56</ele>
        <time>2013-11-17T11:16:46Z</time>
      </trkpt>
      <trkpt lat="45.90067" lon="5.76318">
        <ele>1447.4</ele>
        <time>2013-11-17T11:17:16Z</time>
      </trkpt>
      <trkpt lat="45.90097" lon="5.76313">
        <ele>1451.25</ele>
        <time>2013-11-17T11:17:46Z</time>
      </trkpt>
      <trkpt lat="45.9013" lon="5.7631">
        <ele>1454.13</ele>
        <time>2013-11-17T11:18:16Z</time>
      </trkpt>
      <trkpt lat="45.90159" lon="5.76304">
        <ele>1457.98</ele>
        <time>2013-11-17T11:18:46Z</time>
      </trkpt>
      <trkpt lat="45.90195" lon="5.76304">
        <ele>1461.34</ele>
        <time>2013-11-17T11:19:16Z</time>
      </trkpt>
      <trkpt lat="45.9023" lon="5.763">
        <ele>1465.19</ele>
        <time>2013-11-17T11:19:46Z</time>
      </trkpt>
      <trkpt lat="45.90256" lon="5.76294">
        <ele>1468.07</ele>
        <time>2013-11-17T11:20:16Z</time>
      </trkpt>
      <trkpt lat="45.90288" lon="5.7629">
        <ele>1472.4</ele>
        <time>2013-11-17T11:20:46Z</time>
      </trkpt>
      <trkpt lat="45.90321" lon="5.76286">
        <ele>1476.72</ele>
        <time>2013-11-17T11:21:16Z</time>
      </trkpt>
      <trkpt lat="45.9035" lon="5.76267">
        <ele>1481.53</ele>
        <time>2013-11-17T11:21:46Z</time>
      </trkpt>
      <trkpt lat="45.90363" lon="5.7624">
        <ele>1484.41</ele>
        <time>2013-11-17T11:22:16Z</time>
      </trkpt>
      <trkpt lat="45.90371" lon="5.76214">
        <ele>1486.34</ele>
        <time>2013-11-17T11:22:46Z</time>
      </trkpt>
      <trkpt lat="45.90376" lon="5.76213">
        <ele>1486.34</ele>
        <time>2013-11-17T11:23:16Z</time>
      </trkpt>
      <trkpt lat="45.90379" lon="5.76214">
        <ele>1486.34</ele>
        <time>2013-11-17T11:23:46Z</time>
      </trkpt>
      <trkpt lat="45.90386" lon="5.76211">
        <ele>1488.26</ele>
        <time>2013-11-17T11:24:16Z</time>
      </trkpt>
      <trkpt lat="45.90386" lon="5.7621">
        <ele>1488.26</ele>
        <time>2013-11-17T11:24:46Z</time>
      </trkpt>
      <trkpt lat="45.90386" lon="5.76214">
        <ele>1488.74</ele>
        <time>2013-11-17T11:25:16Z</time>
      </trkpt>
      <trkpt lat="45.90393" lon="5.76214">
        <ele>1488.74</ele>
        <time>2013-11-17T11:25:46Z</time>
      </trkpt>
      <trkpt lat="45.90403" lon="5.7621">
        <ele>1489.22</ele>
        <time>2013-11-17T11:26:16Z</time>
      </trkpt>
      <trkpt lat="45.90426" lon="5.76204">
        <ele>1491.14</ele>
        <time>2013-11-17T11:26:46Z</time>
      </trkpt>
      <trkpt lat="45.90451" lon="5.76195">
        <ele>1493.55</ele>
        <time>2013-11-17T11:27:16Z</time>
      </trkpt>
      <trkpt lat="45.90478" lon="5.76189">
        <ele>1496.43</ele>
        <time>2013-11-17T11:27:46Z</time>
      </trkpt>
      <trkpt lat="45.90501" lon="5.76182">
        <ele>1498.35</ele>
        <time>2013-11-17T11:28:16Z</time>
      </trkpt>
      <trkpt lat="45.90526" lon="5.76174">
        <ele>1501.72</ele>
        <time>2013-11-17T11:28:46Z</time>
      </trkpt>
      <trkpt lat="45.90551" lon="5.76163">
        <ele>1506.52</ele>
        <time>2013-11-17T11:29:16Z</time>
      </trkpt>
      <trkpt lat="45.90562" lon="5.76162">
        <ele>1508.93</ele>
        <time>2013-11-17T11:29:46Z</time>
      </trkpt>
      <trkpt lat="45.90589" lon="5.76149">
        <ele>1513.25</ele>
        <time>2013-11-17T11:30:16Z</time>
      </trkpt>
      <trkpt lat="45.90612" lon="5.76156">
        <ele>1513.73</ele>
        <time>2013-11-17T11:30:46Z</time>
      </trkpt>
      <trkpt lat="45.90617" lon="5.7616">
        <ele>1511.81</ele>
        <time>2013-11-17T11:31:16Z</time>
      </trkpt>
      <trkpt lat="45.90616" lon="5.76159">
        <ele>1511.81</ele>
        <time>2013-11-17T11:31:46Z</time>
      </trkpt>
      <trkpt lat="45.90615" lon="5.76158">
        <ele>1511.81</ele>
        <time>2013-11-17T11:32:16Z</time>
      </trkpt>
      <trkpt lat="45.90615" lon="5.76159">
        <ele>1511.81</ele>
        <time>2013-11-17T11:32:46Z</time>
      </trkpt>
      <trkpt lat="45.90616" lon="5.76159">
        <ele>1513.25</ele>
        <time>2013-11-17T11:33:16Z</time>
      </trkpt>
      <trkpt lat="45.90615" lon="5.7616">
        <ele>1513.73</ele>
        <time>2013-11-17T11:33:46Z</time>
      </trkpt>
      <trkpt lat="45.90615" lon="5.76161">
        <ele>1513.73</ele>
        <time>2013-11-17T11:34:16Z</time>
      </trkpt>
      <trkpt lat="45.90616" lon="5.76161">
        <ele>1513.73</ele>
        <time>2013-11-17T11:34:46Z</time>
      </trkpt>
      <trkpt lat="45.90616" lon="5.7616">
        <ele>1513.73</ele>
        <time>2013-11-17T11:35:16Z</time>
      </trkpt>
      <trkpt lat="45.90614" lon="5.76161">
        <ele>1513.73</ele>
        <time>2013-11-17T11:35:46Z</time>
      </trkpt>
      <trkpt lat="45.90614" lon="5.76159">
        <ele>1514.21</ele>
        <time>2013-11-17T11:36:16Z</time>
      </trkpt>
      <trkpt lat="45.90614" lon="5.76159">
        <ele>1514.21</ele>
        <time>2013-11-17T11:36:46Z</time>
      </trkpt>
      <trkpt lat="45.90616" lon="5.76161">
        <ele>1514.21</ele>
        <time>2013-11-17T11:37:16Z</time>
      </trkpt>
      <trkpt lat="45.90616" lon="5.76162">
        <ele>1514.21</ele>
        <time>2013-11-17T11:37:46Z</time>
      </trkpt>
      <trkpt lat="45.90615" lon="5.76161">
        <ele>1514.69</ele>
        <time>2013-11-17T11:38:16Z</time>
      </trkpt>
      <trkpt lat="45.90615" lon="5.76161">
        <ele>1514.69</ele>
        <time>2013-11-17T11:38:46Z</time>
      </trkpt>
      <trkpt lat="45.90615" lon="5.7616">
        <ele>1514.69</ele>
        <time>2013-11-17T11:39:16Z</time>
      </trkpt>
      <trkpt lat="45.90615" lon="5.76161">
        <ele>1514.69</ele>
        <time>2013-11-17T11:39:46Z</time>
      </trkpt>
      <trkpt lat="45.90614" lon="5.7616">
        <ele>1515.18</ele>
        <time>2013-11-17T11:40:16Z</time>
      </trkpt>
      <trkpt lat="45.90614" lon="5.76161">
        <ele>1515.18</ele>
        <time>2013-11-17T11:40:46Z</time>
      </trkpt>
      <trkpt lat="45.90614" lon="5.7616">
        <ele>1515.18</ele>
        <time>2013-11-17T11:41:16Z</time>
      </trkpt>
      <trkpt lat="45.90614" lon="5.76159">
        <ele>1515.18</ele>
        <time>2013-11-17T11:41:46Z</time>
      </trkpt>
      <trkpt lat="45.90615" lon="5.76161">
        <ele>1515.18</ele>
        <time>2013-11-17T11:42:16Z</time>
      </trkpt>
      <trkpt lat="45.90614" lon="5.76161">
        <ele>1516.14</ele>
        <time>2013-11-17T11:42:46Z</time>
      </trkpt>
      <trkpt lat="45.90614" lon="5.76161">
        <ele>1516.14</ele>
        <time>2013-11-17T11:43:16Z</time>
      </trkpt>
      <trkpt lat="45.90615" lon="5.76162">
        <ele>1516.14</ele>
        <time>2013-11-17T11:43:46Z</time>
      </trkpt>
      <trkpt lat="45.90615" lon="5.76162">
        <ele>1516.14</ele>
        <time>2013-11-17T11:44:16Z</time>
      </trkpt>
      <trkpt lat="45.90615" lon="5.76161">
        <ele>1516.14</ele>
        <time>2013-11-17T11:44:46Z</time>
      </trkpt>
      <trkpt lat="45.90614" lon="5.7616">
        <ele>1516.62</ele>
        <time>2013-11-17T11:45:16Z</time>
      </trkpt>
      <trkpt lat="45.90615" lon="5.7616">
        <ele>1516.62</ele>
        <time>2013-11-17T11:45:46Z</time>
      </trkpt>
      <trkpt lat="45.90615" lon="5.76161">
        <ele>1515.66</ele>
        <time>2013-11-17T11:46:16Z</time>
      </trkpt>
      <trkpt lat="45.90615" lon="5.76161">
        <ele>1515.66</ele>
        <time>2013-11-17T11:46:46Z</time>
      </trkpt>
      <trkpt lat="45.90614" lon="5.7616">
        <ele>1515.66</ele>
        <time>2013-11-17T11:47:16Z</time>
      </trkpt>
      <trkpt lat="45.90613" lon="5.76161">
        <ele>1516.14</ele>
        <time>2013-11-17T11:47:46Z</time>
      </trkpt>
      <trkpt lat="45.90614" lon="5.76162">
        <ele>1517.1</ele>
        <time>2013-11-17T11:48:16Z</time>
      </trkpt>
      <trkpt lat="45.90614" lon="5.76161">
        <ele>1517.1</ele>
        <time>2013-11-17T11:48:46Z</time>
      </trkpt>
      <trkpt lat="45.90614" lon="5.76162">
        <ele>1517.1</ele>
        <time>2013-11-17T11:49:16Z</time>
      </trkpt>
      <trkpt lat="45.90613" lon="5.76162">
        <ele>1517.1</ele>
        <time>2013-11-17T11:49:46Z</time>
      </trkpt>
      <trkpt lat="45.90613" lon="5.76162">
        <ele>1516.14</ele>
        <time>2013-11-17T11:50:16Z</time>
      </trkpt>
      <trkpt lat="45.90613" lon="5.76161">
        <ele>1516.14</ele>
        <time>2013-11-17T11:50:46Z</time>
      </trkpt>
      <trkpt lat="45.90614" lon="5.76161">
        <ele>1516.14</ele>
        <time>2013-11-17T11:51:16Z</time>
      </trkpt>
      <trkpt lat="45.90614" lon="5.7616">
        <ele>1516.14</ele>
        <time>2013-11-17T11:51:46Z</time>
      </trkpt>
      <trkpt lat="45.90614" lon="5.76161">
        <ele>1516.14</ele>
        <time>2013-11-17T11:52:16Z</time>
      </trkpt>
      <trkpt lat="45.90614" lon="5.76159">
        <ele>1516.14</ele>
        <time>2013-11-17T11:52:46Z</time>
      </trkpt>
      <trkpt lat="45.90614" lon="5.76158">
        <ele>1516.14</ele>
        <time>2013-11-17T11:53:16Z</time>
      </trkpt>
      <trkpt lat="45.90614" lon="5.7616">
        <ele>1516.14</ele>
        <time>2013-11-17T11:53:46Z</time>
      </trkpt>
      <trkpt lat="45.90615" lon="5.76163">
        <ele>1516.14</ele>
        <time>2013-11-17T11:54:16Z</time>
      </trkpt>
      <trkpt lat="45.90614" lon="5.76161">
        <ele>1517.1</ele>
        <time>2013-11-17T11:54:46Z</time>
      </trkpt>
      <trkpt lat="45.90613" lon="5.7616">
        <ele>1517.1</ele>
        <time>2013-11-17T11:55:16Z</time>
      </trkpt>
      <trkpt lat="45.90614" lon="5.76161">
        <ele>1516.62</ele>
        <time>2013-11-17T11:55:46Z</time>
      </trkpt>
      <trkpt lat="45.90614" lon="5.76161">
        <ele>1516.62</ele>
        <time>2013-11-17T11:56:16Z</time>
      </trkpt>
      <trkpt lat="45.90614" lon="5.76162">
        <ele>1516.62</ele>
        <time>2013-11-17T11:56:46Z</time>
      </trkpt>
      <trkpt lat="45.90614" lon="5.76161">
        <ele>1516.62</ele>
        <time>2013-11-17T11:57:16Z</time>
      </trkpt>
      <trkpt lat="45.90613" lon="5.7616">
        <ele>1516.14</ele>
        <time>2013-11-17T11:57:46Z</time>
      </trkpt>
      <trkpt lat="45.90613" lon="5.7616">
        <ele>1516.14</ele>
        <time>2013-11-17T11:58:16Z</time>
      </trkpt>
      <trkpt lat="45.90613" lon="5.76161">
        <ele>1516.14</ele>
        <time>2013-11-17T11:58:46Z</time>
      </trkpt>
      <trkpt lat="45.90613" lon="5.76162">
        <ele>1516.14</ele>
        <time>2013-11-17T11:59:16Z</time>
      </trkpt>
      <trkpt lat="45.90614" lon="5.76161">
        <ele>1516.14</ele>
        <time>2013-11-17T11:59:46Z</time>
      </trkpt>
      <trkpt lat="45.90613" lon="5.76161">
        <ele>1516.14</ele>
        <time>2013-11-17T12:00:16Z</time>
      </trkpt>
      <trkpt lat="45.90613" lon="5.7616">
        <ele>1516.14</ele>
        <time>2013-11-17T12:00:46Z</time>
      </trkpt>
      <trkpt lat="45.90613" lon="5.7616">
        <ele>1516.14</ele>
        <time>2013-11-17T12:01:16Z</time>
      </trkpt>
      <trkpt lat="45.90614" lon="5.76159">
        <ele>1516.14</ele>
        <time>2013-11-17T12:01:46Z</time>
      </trkpt>
      <trkpt lat="45.90614" lon="5.7616">
        <ele>1516.14</ele>
        <time>2013-11-17T12:02:16Z</time>
      </trkpt>
      <trkpt lat="45.90614" lon="5.7616">
        <ele>1516.14</ele>
        <time>2013-11-17T12:02:46Z</time>
      </trkpt>
      <trkpt lat="45.90613" lon="5.76162">
        <ele>1516.14</ele>
        <time>2013-11-17T12:03:16Z</time>
      </trkpt>
      <trkpt lat="45.90614" lon="5.76161">
        <ele>1516.14</ele>
        <time>2013-11-17T12:03:46Z</time>
      </trkpt>
      <trkpt lat="45.90613" lon="5.7616">
        <ele>1516.14</ele>
        <time>2013-11-17T12:04:16Z</time>
      </trkpt>
      <trkpt lat="45.90614" lon="5.76159">
        <ele>1516.14</ele>
        <time>2013-11-17T12:04:46Z</time>
      </trkpt>
      <trkpt lat="45.90615" lon="5.7616">
        <ele>1516.14</ele>
        <time>2013-11-17T12:05:16Z</time>
      </trkpt>
      <trkpt lat="45.90615" lon="5.76161">
        <ele>1516.14</ele>
        <time>2013-11-17T12:05:46Z</time>
      </trkpt>
      <trkpt lat="45.90615" lon="5.7616">
        <ele>1516.14</ele>
        <time>2013-11-17T12:06:16Z</time>
      </trkpt>
      <trkpt lat="45.90614" lon="5.7616">
        <ele>1516.14</ele>
        <time>2013-11-17T12:06:46Z</time>
      </trkpt>
      <trkpt lat="45.90614" lon="5.7616">
        <ele>1516.14</ele>
        <time>2013-11-17T12:07:16Z</time>
      </trkpt>
      <trkpt lat="45.90613" lon="5.7616">
        <ele>1516.14</ele>
        <time>2013-11-17T12:07:46Z</time>
      </trkpt>
      <trkpt lat="45.90614" lon="5.76161">
        <ele>1516.14</ele>
        <time>2013-11-17T12:08:16Z</time>
      </trkpt>
      <trkpt lat="45.90615" lon="5.7616">
        <ele>1516.14</ele>
        <time>2013-11-17T12:08:46Z</time>
      </trkpt>
      <trkpt lat="45.90615" lon="5.76159">
        <ele>1516.14</ele>
        <time>2013-11-17T12:09:16Z</time>
      </trkpt>
      <trkpt lat="45.90615" lon="5.7616">
        <ele>1515.66</ele>
        <time>2013-11-17T12:09:46Z</time>
      </trkpt>
      <trkpt lat="45.90615" lon="5.76159">
        <ele>1515.66</ele>
        <time>2013-11-17T12:10:16Z</time>
      </trkpt>
      <trkpt lat="45.90613" lon="5.76158">
        <ele>1515.66</ele>
        <time>2013-11-17T12:10:46Z</time>
      </trkpt>
      <trkpt lat="45.90613" lon="5.76158">
        <ele>1515.66</ele>
        <time>2013-11-17T12:11:16Z</time>
      </trkpt>
      <trkpt lat="45.90613" lon="5.76159">
        <ele>1516.62</ele>
        <time>2013-11-17T12:11:46Z</time>
      </trkpt>
      <trkpt lat="45.90601" lon="5.76176">
        <ele>1513.73</ele>
        <time>2013-11-17T12:12:16Z</time>
      </trkpt>
      <trkpt lat="45.90601" lon="5.76179">
        <ele>1512.77</ele>
        <time>2013-11-17T12:12:46Z</time>
      </trkpt>
      <trkpt lat="45.90607" lon="5.76168">
        <ele>1515.18</ele>
        <time>2013-11-17T12:13:16Z</time>
      </trkpt>
      <trkpt lat="45.90615" lon="5.76158">
        <ele>1517.58</ele>
        <time>2013-11-17T12:13:46Z</time>
      </trkpt>
      <trkpt lat="45.90616" lon="5.76155">
        <ele>1517.58</ele>
        <time>2013-11-17T12:14:16Z</time>
      </trkpt>
      <trkpt lat="45.90615" lon="5.76154">
        <ele>1518.06</ele>
        <time>2013-11-17T12:14:46Z</time>
      </trkpt>
      <trkpt lat="45.90615" lon="5.76156">
        <ele>1518.06</ele>
        <time>2013-11-17T12:15:16Z</time>
      </trkpt>
      <trkpt lat="45.90614" lon="5.76156">
        <ele>1517.1</ele>
        <time>2013-11-17T12:15:46Z</time>
      </trkpt>
      <trkpt lat="45.90614" lon="5.76156">
        <ele>1517.1</ele>
        <time>2013-11-17T12:16:16Z</time>
      </trkpt>
      <trkpt lat="45.90605" lon="5.76157">
        <ele>1516.14</ele>
        <time>2013-11-17T12:16:46Z</time>
      </trkpt>
      <trkpt lat="45.90577" lon="5.76152">
        <ele>1515.66</ele>
        <time>2013-11-17T12:17:16Z</time>
      </trkpt>
      <trkpt lat="45.90547" lon="5.76137">
        <ele>1510.85</ele>
        <time>2013-11-17T12:17:46Z</time>
      </trkpt>
      <trkpt lat="45.9053" lon="5.7613">
        <ele>1509.41</ele>
        <time>2013-11-17T12:18:16Z</time>
      </trkpt>
      <trkpt lat="45.90516" lon="5.76114">
        <ele>1509.89</ele>
        <time>2013-11-17T12:18:46Z</time>
      </trkpt>
      <trkpt lat="45.9049" lon="5.76113">
        <ele>1507</ele>
        <time>2013-11-17T12:19:16Z</time>
      </trkpt>
      <trkpt lat="45.90457" lon="5.76109">
        <ele>1502.2</ele>
        <time>2013-11-17T12:19:46Z</time>
      </trkpt>
      <trkpt lat="45.90428" lon="5.76097">
        <ele>1497.39</ele>
        <time>2013-11-17T12:20:16Z</time>
      </trkpt>
      <trkpt lat="45.90398" lon="5.76084">
        <ele>1493.55</ele>
        <time>2013-11-17T12:20:46Z</time>
      </trkpt>
      <trkpt lat="45.90368" lon="5.7607">
        <ele>1489.22</ele>
        <time>2013-11-17T12:21:16Z</time>
      </trkpt>
      <trkpt lat="45.90345" lon="5.7609">
        <ele>1488.26</ele>
        <time>2013-11-17T12:21:46Z</time>
      </trkpt>
      <trkpt lat="45.90338" lon="5.7614">
        <ele>1493.06</ele>
        <time>2013-11-17T12:22:16Z</time>
      </trkpt>
      <trkpt lat="45.90331" lon="5.76167">
        <ele>1494.03</ele>
        <time>2013-11-17T12:22:46Z</time>
      </trkpt>
      <trkpt lat="45.90331" lon="5.76204">
        <ele>1494.51</ele>
        <time>2013-11-17T12:23:16Z</time>
      </trkpt>
      <trkpt lat="45.90318" lon="5.76183">
        <ele>1495.95</ele>
        <time>2013-11-17T12:23:46Z</time>
      </trkpt>
      <trkpt lat="45.90306" lon="5.76164">
        <ele>1499.79</ele>
        <time>2013-11-17T12:24:16Z</time>
      </trkpt>
      <trkpt lat="45.90287" lon="5.76126">
        <ele>1500.76</ele>
        <time>2013-11-17T12:24:46Z</time>
      </trkpt>
      <trkpt lat="45.90267" lon="5.76086">
        <ele>1502.2</ele>
        <time>2013-11-17T12:25:16Z</time>
      </trkpt>
      <trkpt lat="45.90236" lon="5.76079">
        <ele>1505.56</ele>
        <time>2013-11-17T12:25:46Z</time>
      </trkpt>
      <trkpt lat="45.9021" lon="5.76095">
        <ele>1508.45</ele>
        <time>2013-11-17T12:26:16Z</time>
      </trkpt>
      <trkpt lat="45.90178" lon="5.76099">
        <ele>1510.37</ele>
        <time>2013-11-17T12:26:46Z</time>
      </trkpt>
      <trkpt lat="45.90163" lon="5.76104">
        <ele>1515.66</ele>
        <time>2013-11-17T12:27:16Z</time>
      </trkpt>
      <trkpt lat="45.90151" lon="5.76098">
        <ele>1520.94</ele>
        <time>2013-11-17T12:27:46Z</time>
      </trkpt>
      <trkpt lat="45.90131" lon="5.76103">
        <ele>1526.23</ele>
        <time>2013-11-17T12:28:16Z</time>
      </trkpt>
      <trkpt lat="45.90101" lon="5.76103">
        <ele>1523.83</ele>
        <time>2013-11-17T12:28:46Z</time>
      </trkpt>
      <trkpt lat="45.90065" lon="5.76102">
        <ele>1521.42</ele>
        <time>2013-11-17T12:29:16Z</time>
      </trkpt>
      <trkpt lat="45.90029" lon="5.76095">
        <ele>1520.94</ele>
        <time>2013-11-17T12:29:46Z</time>
      </trkpt>
      <trkpt lat="45.89997" lon="5.76097">
        <ele>1520.94</ele>
        <time>2013-11-17T12:30:16Z</time>
      </trkpt>
      <trkpt lat="45.8999" lon="5.761">
        <ele>1520.46</ele>
        <time>2013-11-17T12:30:46Z</time>
      </trkpt>
      <trkpt lat="45.89962" lon="5.76107">
        <ele>1516.14</ele>
        <time>2013-11-17T12:31:16Z</time>
      </trkpt>
      <trkpt lat="45.89951" lon="5.76098">
        <ele>1519.02</ele>
        <time>2013-11-17T12:31:46Z</time>
      </trkpt>
      <trkpt lat="45.89939" lon="5.76095">
        <ele>1522.87</ele>
        <time>2013-11-17T12:32:16Z</time>
      </trkpt>
      <trkpt lat="45.89928" lon="5.76093">
        <ele>1523.83</ele>
        <time>2013-11-17T12:32:46Z</time>
      </trkpt>
      <trkpt lat="45.8992" lon="5.76093">
        <ele>1524.79</ele>
        <time>2013-11-17T12:33:16Z</time>
      </trkpt>
      <trkpt lat="45.89913" lon="5.76109">
        <ele>1521.42</ele>
        <time>2013-11-17T12:33:46Z</time>
      </trkpt>
      <trkpt lat="45.89894" lon="5.76117">
        <ele>1518.54</ele>
        <time>2013-11-17T12:34:16Z</time>
      </trkpt>
      <trkpt lat="45.89893" lon="5.7612">
        <ele>1517.1</ele>
        <time>2013-11-17T12:34:46Z</time>
      </trkpt>
      <trkpt lat="45.89895" lon="5.76118">
        <ele>1518.54</ele>
        <time>2013-11-17T12:35:16Z</time>
      </trkpt>
      <trkpt lat="45.89868" lon="5.76127">
        <ele>1517.1</ele>
        <time>2013-11-17T12:35:46Z</time>
      </trkpt>
      <trkpt lat="45.89854" lon="5.76125">
        <ele>1516.62</ele>
        <time>2013-11-17T12:36:16Z</time>
      </trkpt>
      <trkpt lat="45.89846" lon="5.76127">
        <ele>1517.1</ele>
        <time>2013-11-17T12:36:46Z</time>
      </trkpt>
      <trkpt lat="45.89839" lon="5.7613">
        <ele>1514.21</ele>
        <time>2013-11-17T12:37:16Z</time>
      </trkpt>
      <trkpt lat="45.89834" lon="5.76132">
        <ele>1512.29</ele>
        <time>2013-11-17T12:37:46Z</time>
      </trkpt>
      <trkpt lat="45.89824" lon="5.76136">
        <ele>1507.48</ele>
        <time>2013-11-17T12:38:16Z</time>
      </trkpt>
      <trkpt lat="45.89821" lon="5.76135">
        <ele>1506.04</ele>
        <time>2013-11-17T12:38:46Z</time>
      </trkpt>
      <trkpt lat="45.89817" lon="5.76141">
        <ele>1502.68</ele>
        <time>2013-11-17T12:39:16Z</time>
      </trkpt>
      <trkpt lat="45.898" lon="5.76132">
        <ele>1497.39</ele>
        <time>2013-11-17T12:39:46Z</time>
      </trkpt>
      <trkpt lat="45.8979" lon="5.7612">
        <ele>1495.47</ele>
        <time>2013-11-17T12:40:16Z</time>
      </trkpt>
      <trkpt lat="45.89778" lon="5.76107">
        <ele>1490.66</ele>
        <time>2013-11-17T12:40:46Z</time>
      </trkpt>
      <trkpt lat="45.89777" lon="5.76106">
        <ele>1490.18</ele>
        <time>2013-11-17T12:41:16Z</time>
      </trkpt>
      <trkpt lat="45.89778" lon="5.76108">
        <ele>1490.66</ele>
        <time>2013-11-17T12:41:46Z</time>
      </trkpt>
      <trkpt lat="45.89768" lon="5.76103">
        <ele>1488.74</ele>
        <time>2013-11-17T12:42:16Z</time>
      </trkpt>
      <trkpt lat="45.89748" lon="5.76099">
        <ele>1485.85</ele>
        <time>2013-11-17T12:42:46Z</time>
      </trkpt>
      <trkpt lat="45.89742" lon="5.76099">
        <ele>1484.41</ele>
        <time>2013-11-17T12:43:16Z</time>
      </trkpt>
      <trkpt lat="45.89734" lon="5.76102">
        <ele>1480.57</ele>
        <time>2013-11-17T12:43:46Z</time>
      </trkpt>
      <trkpt lat="45.89711" lon="5.76102">
        <ele>1475.28</ele>
        <time>2013-11-17T12:44:16Z</time>
      </trkpt>
      <trkpt lat="45.89686" lon="5.76097">
        <ele>1470.95</ele>
        <time>2013-11-17T12:44:46Z</time>
      </trkpt>
      <trkpt lat="45.89667" lon="5.76085">
        <ele>1470.47</ele>
        <time>2013-11-17T12:45:16Z</time>
      </trkpt>
      <trkpt lat="45.89644" lon="5.76087">
        <ele>1468.55</ele>
        <time>2013-11-17T12:45:46Z</time>
      </trkpt>
      <trkpt lat="45.89625" lon="5.76087">
        <ele>1463.74</ele>
        <time>2013-11-17T12:46:16Z</time>
      </trkpt>
      <trkpt lat="45.89615" lon="5.76087">
        <ele>1460.86</ele>
        <time>2013-11-17T12:46:46Z</time>
      </trkpt>
      <trkpt lat="45.89608" lon="5.76094">
        <ele>1457.5</ele>
        <time>2013-11-17T12:47:16Z</time>
      </trkpt>
      <trkpt lat="45.89602" lon="5.76094">
        <ele>1457.5</ele>
        <time>2013-11-17T12:47:46Z</time>
      </trkpt>
      <trkpt lat="45.89597" lon="5.76096">
        <ele>1454.13</ele>
        <time>2013-11-17T12:48:16Z</time>
      </trkpt>
      <trkpt lat="45.89591" lon="5.76097">
        <ele>1452.21</ele>
        <time>2013-11-17T12:48:46Z</time>
      </trkpt>
      <trkpt lat="45.89585" lon="5.76095">
        <ele>1449.81</ele>
        <time>2013-11-17T12:49:16Z</time>
      </trkpt>
      <trkpt lat="45.89573" lon="5.76085">
        <ele>1449.81</ele>
        <time>2013-11-17T12:49:46Z</time>
      </trkpt>
      <trkpt lat="45.89562" lon="5.76088">
        <ele>1448.36</ele>
        <time>2013-11-17T12:50:16Z</time>
      </trkpt>
      <trkpt lat="45.8955" lon="5.76087">
        <ele>1445</ele>
        <time>2013-11-17T12:50:46Z</time>
      </trkpt>
      <trkpt lat="45.89538" lon="5.76083">
        <ele>1445.96</ele>
        <time>2013-11-17T12:51:16Z</time>
      </trkpt>
      <trkpt lat="45.89524" lon="5.76074">
        <ele>1446.92</ele>
        <time>2013-11-17T12:51:46Z</time>
      </trkpt>
      <trkpt lat="45.89525" lon="5.76073">
        <ele>1445.48</ele>
        <time>2013-11-17T12:52:16Z</time>
      </trkpt>
      <trkpt lat="45.89526" lon="5.76074">
        <ele>1446.44</ele>
        <time>2013-11-17T12:52:46Z</time>
      </trkpt>
      <trkpt lat="45.89528" lon="5.76074">
        <ele>1446.44</ele>
        <time>2013-11-17T12:53:16Z</time>
      </trkpt>
      <trkpt lat="45.89525" lon="5.7607">
        <ele>1447.4</ele>
        <time>2013-11-17T12:53:46Z</time>
      </trkpt>
      <trkpt lat="45.89527" lon="5.76074">
        <ele>1446.92</ele>
        <time>2013-11-17T12:54:16Z</time>
      </trkpt>
      <trkpt lat="45.89525" lon="5.76079">
        <ele>1446.92</ele>
        <time>2013-11-17T12:54:46Z</time>
      </trkpt>
      <trkpt lat="45.89527" lon="5.76079">
        <ele>1446.92</ele>
        <time>2013-11-17T12:55:16Z</time>
      </trkpt>
      <trkpt lat="45.89526" lon="5.76081">
        <ele>1446.92</ele>
        <time>2013-11-17T12:55:46Z</time>
      </trkpt>
      <trkpt lat="45.89527" lon="5.7608">
        <ele>1446.92</ele>
        <time>2013-11-17T12:56:16Z</time>
      </trkpt>
      <trkpt lat="45.89525" lon="5.76079">
        <ele>1446.44</ele>
        <time>2013-11-17T12:56:46Z</time>
      </trkpt>
      <trkpt lat="45.89525" lon="5.7608">
        <ele>1446.44</ele>
        <time>2013-11-17T12:57:16Z</time>
      </trkpt>
      <trkpt lat="45.8952" lon="5.76079">
        <ele>1444.04</ele>
        <time>2013-11-17T12:57:46Z</time>
      </trkpt>
      <trkpt lat="45.8951" lon="5.76074">
        <ele>1440.67</ele>
        <time>2013-11-17T12:58:16Z</time>
      </trkpt>
      <trkpt lat="45.89504" lon="5.76086">
        <ele>1433.46</ele>
        <time>2013-11-17T12:58:46Z</time>
      </trkpt>
      <trkpt lat="45.89485" lon="5.76097">
        <ele>1427.7</ele>
        <time>2013-11-17T12:59:16Z</time>
      </trkpt>
      <trkpt lat="45.89465" lon="5.76105">
        <ele>1423.37</ele>
        <time>2013-11-17T12:59:46Z</time>
      </trkpt>
      <trkpt lat="45.8946" lon="5.76114">
        <ele>1420.97</ele>
        <time>2013-11-17T13:00:16Z</time>
      </trkpt>
      <trkpt lat="45.89426" lon="5.76109">
        <ele>1417.6</ele>
        <time>2013-11-17T13:00:46Z</time>
      </trkpt>
      <trkpt lat="45.89386" lon="5.76099">
        <ele>1415.68</ele>
        <time>2013-11-17T13:01:16Z</time>
      </trkpt>
      <trkpt lat="45.89348" lon="5.76103">
        <ele>1410.87</ele>
        <time>2013-11-17T13:01:46Z</time>
      </trkpt>
      <trkpt lat="45.89313" lon="5.76112">
        <ele>1409.43</ele>
        <time>2013-11-17T13:02:16Z</time>
      </trkpt>
      <trkpt lat="45.89277" lon="5.76107">
        <ele>1407.99</ele>
        <time>2013-11-17T13:02:46Z</time>
      </trkpt>
      <trkpt lat="45.89263" lon="5.76103">
        <ele>1407.51</ele>
        <time>2013-11-17T13:03:16Z</time>
      </trkpt>
      <trkpt lat="45.89247" lon="5.76103">
        <ele>1406.55</ele>
        <time>2013-11-17T13:03:46Z</time>
      </trkpt>
      <trkpt lat="45.89217" lon="5.76095">
        <ele>1405.58</ele>
        <time>2013-11-17T13:04:16Z</time>
      </trkpt>
      <trkpt lat="45.89186" lon="5.76083">
        <ele>1404.14</ele>
        <time>2013-11-17T13:04:46Z</time>
      </trkpt>
      <trkpt lat="45.89151" lon="5.7608">
        <ele>1400.3</ele>
        <time>2013-11-17T13:05:16Z</time>
      </trkpt>
      <trkpt lat="45.89115" lon="5.7607">
        <ele>1397.41</ele>
        <time>2013-11-17T13:05:46Z</time>
      </trkpt>
      <trkpt lat="45.89083" lon="5.76064">
        <ele>1395.49</ele>
        <time>2013-11-17T13:06:16Z</time>
      </trkpt>
      <trkpt lat="45.89054" lon="5.76069">
        <ele>1395.01</ele>
        <time>2013-11-17T13:06:46Z</time>
      </trkpt>
      <trkpt lat="45.89025" lon="5.76073">
        <ele>1392.13</ele>
        <time>2013-11-17T13:07:16Z</time>
      </trkpt>
      <trkpt lat="45.89009" lon="5.76074">
        <ele>1389.72</ele>
        <time>2013-11-17T13:07:46Z</time>
      </trkpt>
      <trkpt lat="45.88975" lon="5.7608">
        <ele>1384.44</ele>
        <time>2013-11-17T13:08:16Z</time>
      </trkpt>
      <trkpt lat="45.88957" lon="5.76087">
        <ele>1379.63</ele>
        <time>2013-11-17T13:08:46Z</time>
      </trkpt>
      <trkpt lat="45.88924" lon="5.76101">
        <ele>1375.3</ele>
        <time>2013-11-17T13:09:16Z</time>
      </trkpt>
      <trkpt lat="45.88892" lon="5.76103">
        <ele>1372.42</ele>
        <time>2013-11-17T13:09:46Z</time>
      </trkpt>
      <trkpt lat="45.88853" lon="5.76098">
        <ele>1369.54</ele>
        <time>2013-11-17T13:10:16Z</time>
      </trkpt>
      <trkpt lat="45.88819" lon="5.76091">
        <ele>1367.13</ele>
        <time>2013-11-17T13:10:46Z</time>
      </trkpt>
      <trkpt lat="45.88797" lon="5.76088">
        <ele>1366.17</ele>
        <time>2013-11-17T13:11:16Z</time>
      </trkpt>
      <trkpt lat="45.8879" lon="5.76084">
        <ele>1366.17</ele>
        <time>2013-11-17T13:11:46Z</time>
      </trkpt>
      <trkpt lat="45.88781" lon="5.76075">
        <ele>1370.5</ele>
        <time>2013-11-17T13:12:16Z</time>
      </trkpt>
      <trkpt lat="45.88775" lon="5.76065">
        <ele>1373.86</ele>
        <time>2013-11-17T13:12:46Z</time>
      </trkpt>
      <trkpt lat="45.88771" lon="5.7606">
        <ele>1375.78</ele>
        <time>2013-11-17T13:13:16Z</time>
      </trkpt>
      <trkpt lat="45.88769" lon="5.76053">
        <ele>1378.67</ele>
        <time>2013-11-17T13:13:46Z</time>
      </trkpt>
      <trkpt lat="45.88766" lon="5.76042">
        <ele>1383.47</ele>
        <time>2013-11-17T13:14:16Z</time>
      </trkpt>
      <trkpt lat="45.88764" lon="5.76023">
        <ele>1388.76</ele>
        <time>2013-11-17T13:14:46Z</time>
      </trkpt>
      <trkpt lat="45.88755" lon="5.76009">
        <ele>1392.61</ele>
        <time>2013-11-17T13:15:16Z</time>
      </trkpt>
      <trkpt lat="45.88747" lon="5.75989">
        <ele>1396.93</ele>
        <time>2013-11-17T13:15:46Z</time>
      </trkpt>
      <trkpt lat="45.88736" lon="5.75976">
        <ele>1401.26</ele>
        <time>2013-11-17T13:16:16Z</time>
      </trkpt>
      <trkpt lat="45.88721" lon="5.75959">
        <ele>1405.1</ele>
        <time>2013-11-17T13:16:46Z</time>
      </trkpt>
      <trkpt lat="45.88707" lon="5.7594">
        <ele>1408.47</ele>
        <time>2013-11-17T13:17:16Z</time>
      </trkpt>
      <trkpt lat="45.88688" lon="5.75925">
        <ele>1409.43</ele>
        <time>2013-11-17T13:17:46Z</time>
      </trkpt>
      <trkpt lat="45.88671" lon="5.75896">
        <ele>1411.83</ele>
        <time>2013-11-17T13:18:16Z</time>
      </trkpt>
      <trkpt lat="45.88652" lon="5.75862">
        <ele>1407.99</ele>
        <time>2013-11-17T13:18:46Z</time>
      </trkpt>
      <trkpt lat="45.88627" lon="5.75835">
        <ele>1407.51</ele>
        <time>2013-11-17T13:19:16Z</time>
      </trkpt>
      <trkpt lat="45.88606" lon="5.7581">
        <ele>1407.03</ele>
        <time>2013-11-17T13:19:46Z</time>
      </trkpt>
      <trkpt lat="45.88592" lon="5.75796">
        <ele>1411.35</ele>
        <time>2013-11-17T13:20:16Z</time>
      </trkpt>
      <trkpt lat="45.88587" lon="5.75795">
        <ele>1411.83</ele>
        <time>2013-11-17T13:20:46Z</time>
      </trkpt>
      <trkpt lat="45.88583" lon="5.75796">
        <ele>1411.83</ele>
        <time>2013-11-17T13:21:16Z</time>
      </trkpt>
      <trkpt lat="45.88584" lon="5.75798">
        <ele>1411.83</ele>
        <time>2013-11-17T13:21:46Z</time>
      </trkpt>
      <trkpt lat="45.88584" lon="5.75799">
        <ele>1411.83</ele>
        <time>2013-11-17T13:22:16Z</time>
      </trkpt>
      <trkpt lat="45.88568" lon="5.7578">
        <ele>1408.95</ele>
        <time>2013-11-17T13:22:46Z</time>
      </trkpt>
      <trkpt lat="45.88548" lon="5.75755">
        <ele>1404.14</ele>
        <time>2013-11-17T13:23:16Z</time>
      </trkpt>
      <trkpt lat="45.88533" lon="5.75728">
        <ele>1398.37</ele>
        <time>2013-11-17T13:23:46Z</time>
      </trkpt>
      <trkpt lat="45.88518" lon="5.75707">
        <ele>1394.05</ele>
        <time>2013-11-17T13:24:16Z</time>
      </trkpt>
      <trkpt lat="45.88506" lon="5.75687">
        <ele>1388.28</ele>
        <time>2013-11-17T13:24:46Z</time>
      </trkpt>
      <trkpt lat="45.88493" lon="5.75669">
        <ele>1384.92</ele>
        <time>2013-11-17T13:25:16Z</time>
      </trkpt>
      <trkpt lat="45.88488" lon="5.7566">
        <ele>1382.03</ele>
        <time>2013-11-17T13:25:46Z</time>
      </trkpt>
      <trkpt lat="45.88477" lon="5.75642">
        <ele>1376.75</ele>
        <time>2013-11-17T13:26:16Z</time>
      </trkpt>
      <trkpt lat="45.8847" lon="5.75627">
        <ele>1371.46</ele>
        <time>2013-11-17T13:26:46Z</time>
      </trkpt>
      <trkpt lat="45.88456" lon="5.7561">
        <ele>1367.13</ele>
        <time>2013-11-17T13:27:16Z</time>
      </trkpt>
      <trkpt lat="45.88445" lon="5.75594">
        <ele>1362.33</ele>
        <time>2013-11-17T13:27:46Z</time>
      </trkpt>
      <trkpt lat="45.88451" lon="5.75579">
        <ele>1355.12</ele>
        <time>2013-11-17T13:28:16Z</time>
      </trkpt>
      <trkpt lat="45.8845" lon="5.75577">
        <ele>1354.15</ele>
        <time>2013-11-17T13:28:46Z</time>
      </trkpt>
      <trkpt lat="45.88442" lon="5.75568">
        <ele>1351.75</ele>
        <time>2013-11-17T13:29:16Z</time>
      </trkpt>
      <trkpt lat="45.88417" lon="5.75549">
        <ele>1347.43</ele>
        <time>2013-11-17T13:29:46Z</time>
      </trkpt>
      <trkpt lat="45.88389" lon="5.75523">
        <ele>1342.62</ele>
        <time>2013-11-17T13:30:16Z</time>
      </trkpt>
      <trkpt lat="45.88367" lon="5.75494">
        <ele>1336.85</ele>
        <time>2013-11-17T13:30:46Z</time>
      </trkpt>
      <trkpt lat="45.88341" lon="5.75465">
        <ele>1332.52</ele>
        <time>2013-11-17T13:31:16Z</time>
      </trkpt>
      <trkpt lat="45.88331" lon="5.75456">
        <ele>1331.08</ele>
        <time>2013-11-17T13:31:46Z</time>
      </trkpt>
      <trkpt lat="45.88329" lon="5.75457">
        <ele>1331.08</ele>
        <time>2013-11-17T13:32:16Z</time>
      </trkpt>
      <trkpt lat="45.8833" lon="5.75457">
        <ele>1331.08</ele>
        <time>2013-11-17T13:32:46Z</time>
      </trkpt>
      <trkpt lat="45.88329" lon="5.75456">
        <ele>1331.08</ele>
        <time>2013-11-17T13:33:16Z</time>
      </trkpt>
      <trkpt lat="45.88328" lon="5.75456">
        <ele>1331.08</ele>
        <time>2013-11-17T13:33:46Z</time>
      </trkpt>
      <trkpt lat="45.88329" lon="5.75458">
        <ele>1331.08</ele>
        <time>2013-11-17T13:34:16Z</time>
      </trkpt>
      <trkpt lat="45.88329" lon="5.75457">
        <ele>1331.08</ele>
        <time>2013-11-17T13:34:46Z</time>
      </trkpt>
      <trkpt lat="45.88318" lon="5.75438">
        <ele>1328.68</ele>
        <time>2013-11-17T13:35:16Z</time>
      </trkpt>
      <trkpt lat="45.88296" lon="5.75411">
        <ele>1322.91</ele>
        <time>2013-11-17T13:35:46Z</time>
      </trkpt>
      <trkpt lat="45.88273" lon="5.7538">
        <ele>1317.62</ele>
        <time>2013-11-17T13:36:16Z</time>
      </trkpt>
      <trkpt lat="45.88253" lon="5.75358">
        <ele>1312.34</ele>
        <time>2013-11-17T13:36:46Z</time>
      </trkpt>
      <trkpt lat="45.8824" lon="5.75329">
        <ele>1306.57</ele>
        <time>2013-11-17T13:37:16Z</time>
      </trkpt>
      <trkpt lat="45.88217" lon="5.75306">
        <ele>1302.72</ele>
        <time>2013-11-17T13:37:46Z</time>
      </trkpt>
      <trkpt lat="45.88194" lon="5.75279">
        <ele>1297.92</ele>
        <time>2013-11-17T13:38:16Z</time>
      </trkpt>
      <trkpt lat="45.88184" lon="5.75284">
        <ele>1296.96</ele>
        <time>2013-11-17T13:38:46Z</time>
      </trkpt>
      <trkpt lat="45.88161" lon="5.7528">
        <ele>1291.67</ele>
        <time>2013-11-17T13:39:16Z</time>
      </trkpt>
      <trkpt lat="45.88132" lon="5.75285">
        <ele>1284.46</ele>
        <time>2013-11-17T13:39:46Z</time>
      </trkpt>
      <trkpt lat="45.88103" lon="5.75303">
        <ele>1276.29</ele>
        <time>2013-11-17T13:40:16Z</time>
      </trkpt>
      <trkpt lat="45.8808" lon="5.75327">
        <ele>1267.64</ele>
        <time>2013-11-17T13:40:46Z</time>
      </trkpt>
      <trkpt lat="45.88067" lon="5.75327">
        <ele>1262.83</ele>
        <time>2013-11-17T13:41:16Z</time>
      </trkpt>
      <trkpt lat="45.88047" lon="5.75345">
        <ele>1254.66</ele>
        <time>2013-11-17T13:41:46Z</time>
      </trkpt>
      <trkpt lat="45.88029" lon="5.75359">
        <ele>1246.97</ele>
        <time>2013-11-17T13:42:16Z</time>
      </trkpt>
      <trkpt lat="45.88006" lon="5.75376">
        <ele>1238.8</ele>
        <time>2013-11-17T13:42:46Z</time>
      </trkpt>
      <trkpt lat="45.87983" lon="5.75384">
        <ele>1228.22</ele>
        <time>2013-11-17T13:43:16Z</time>
      </trkpt>
      <trkpt lat="45.87964" lon="5.75387">
        <ele>1219.57</ele>
        <time>2013-11-17T13:43:46Z</time>
      </trkpt>
      <trkpt lat="45.87944" lon="5.75391">
        <ele>1210.92</ele>
        <time>2013-11-17T13:44:16Z</time>
      </trkpt>
      <trkpt lat="45.87929" lon="5.75408">
        <ele>1203.23</ele>
        <time>2013-11-17T13:44:46Z</time>
      </trkpt>
      <trkpt lat="45.87923" lon="5.75392">
        <ele>1202.27</ele>
        <time>2013-11-17T13:45:16Z</time>
      </trkpt>
      <trkpt lat="45.87917" lon="5.75391">
        <ele>1203.23</ele>
        <time>2013-11-17T13:45:46Z</time>
      </trkpt>
      <trkpt lat="45.87908" lon="5.75398">
        <ele>1203.71</ele>
        <time>2013-11-17T13:46:16Z</time>
      </trkpt>
      <trkpt lat="45.87887" lon="5.75405">
        <ele>1194.09</ele>
        <time>2013-11-17T13:46:46Z</time>
      </trkpt>
      <trkpt lat="45.87869" lon="5.75417">
        <ele>1190.73</ele>
        <time>2013-11-17T13:47:17Z</time>
      </trkpt>
      <trkpt lat="45.87855" lon="5.75436">
        <ele>1179.67</ele>
        <time>2013-11-17T13:47:47Z</time>
      </trkpt>
      <trkpt lat="45.87836" lon="5.75452">
        <ele>1169.58</ele>
        <time>2013-11-17T13:48:17Z</time>
      </trkpt>
      <trkpt lat="45.87824" lon="5.75449">
        <ele>1166.22</ele>
        <time>2013-11-17T13:48:47Z</time>
      </trkpt>
      <trkpt lat="45.8782" lon="5.75443">
        <ele>1165.26</ele>
        <time>2013-11-17T13:49:17Z</time>
      </trkpt>
      <trkpt lat="45.87815" lon="5.75448">
        <ele>1164.29</ele>
        <time>2013-11-17T13:49:47Z</time>
      </trkpt>
      <trkpt lat="45.87811" lon="5.75447">
        <ele>1163.81</ele>
        <time>2013-11-17T13:50:17Z</time>
      </trkpt>
      <trkpt lat="45.87816" lon="5.75451">
        <ele>1165.26</ele>
        <time>2013-11-17T13:50:47Z</time>
      </trkpt>
      <trkpt lat="45.87806" lon="5.75447">
        <ele>1165.74</ele>
        <time>2013-11-17T13:51:17Z</time>
      </trkpt>
      <trkpt lat="45.87804" lon="5.75436">
        <ele>1165.74</ele>
        <time>2013-11-17T13:51:47Z</time>
      </trkpt>
      <trkpt lat="45.87807" lon="5.75432">
        <ele>1166.22</ele>
        <time>2013-11-17T13:52:17Z</time>
      </trkpt>
      <trkpt lat="45.87814" lon="5.75434">
        <ele>1166.22</ele>
        <time>2013-11-17T13:52:47Z</time>
      </trkpt>
      <trkpt lat="45.87818" lon="5.75422">
        <ele>1166.22</ele>
        <time>2013-11-17T13:53:17Z</time>
      </trkpt>
      <trkpt lat="45.87815" lon="5.75433">
        <ele>1166.22</ele>
        <time>2013-11-17T13:53:47Z</time>
      </trkpt>
      <trkpt lat="45.87798" lon="5.75441">
        <ele>1163.81</ele>
        <time>2013-11-17T13:54:17Z</time>
      </trkpt>
      <trkpt lat="45.87778" lon="5.75448">
        <ele>1155.64</ele>
        <time>2013-11-17T13:54:47Z</time>
      </trkpt>
      <trkpt lat="45.87763" lon="5.75462">
        <ele>1146.51</ele>
        <time>2013-11-17T13:55:17Z</time>
      </trkpt>
      <trkpt lat="45.87732" lon="5.75455">
        <ele>1138.34</ele>
        <time>2013-11-17T13:55:47Z</time>
      </trkpt>
      <trkpt lat="45.87716" lon="5.75441">
        <ele>1134.97</ele>
        <time>2013-11-17T13:56:17Z</time>
      </trkpt>
      <trkpt lat="45.87679" lon="5.75419">
        <ele>1130.65</ele>
        <time>2013-11-17T13:56:47Z</time>
      </trkpt>
      <trkpt lat="45.8765" lon="5.75417">
        <ele>1125.36</ele>
        <time>2013-11-17T13:57:17Z</time>
      </trkpt>
      <trkpt lat="45.87617" lon="5.75435">
        <ele>1117.67</ele>
        <time>2013-11-17T13:57:47Z</time>
      </trkpt>
      <trkpt lat="45.87595" lon="5.75445">
        <ele>1107.1</ele>
        <time>2013-11-17T13:58:17Z</time>
      </trkpt>
      <trkpt lat="45.87591" lon="5.7544">
        <ele>1103.25</ele>
        <time>2013-11-17T13:58:47Z</time>
      </trkpt>
      <trkpt lat="45.87598" lon="5.75439">
        <ele>1103.73</ele>
        <time>2013-11-17T13:59:17Z</time>
      </trkpt>
      <trkpt lat="45.87592" lon="5.7544">
        <ele>1103.73</ele>
        <time>2013-11-17T13:59:47Z</time>
      </trkpt>
      <trkpt lat="45.87592" lon="5.75432">
        <ele>1103.25</ele>
        <time>2013-11-17T14:00:17Z</time>
      </trkpt>
      <trkpt lat="45.87569" lon="5.75429">
        <ele>1096.52</ele>
        <time>2013-11-17T14:00:47Z</time>
      </trkpt>
      <trkpt lat="45.87562" lon="5.7544">
        <ele>1086.91</ele>
        <time>2013-11-17T14:01:17Z</time>
      </trkpt>
      <trkpt lat="45.87558" lon="5.75459">
        <ele>1084.5</ele>
        <time>2013-11-17T14:01:47Z</time>
      </trkpt>
      <trkpt lat="45.87553" lon="5.75462">
        <ele>1081.14</ele>
        <time>2013-11-17T14:02:17Z</time>
      </trkpt>
      <trkpt lat="45.87546" lon="5.75473">
        <ele>1072.49</ele>
        <time>2013-11-17T14:02:47Z</time>
      </trkpt>
      <trkpt lat="45.87526" lon="5.75463">
        <ele>1061.91</ele>
        <time>2013-11-17T14:03:17Z</time>
      </trkpt>
      <trkpt lat="45.87509" lon="5.75469">
        <ele>1055.18</ele>
        <time>2013-11-17T14:03:47Z</time>
      </trkpt>
      <trkpt lat="45.87502" lon="5.75478">
        <ele>1050.86</ele>
        <time>2013-11-17T14:04:17Z</time>
      </trkpt>
      <trkpt lat="45.87502" lon="5.75472">
        <ele>1050.38</ele>
        <time>2013-11-17T14:04:47Z</time>
      </trkpt>
      <trkpt lat="45.87504" lon="5.75478">
        <ele>1050.38</ele>
        <time>2013-11-17T14:05:17Z</time>
      </trkpt>
      <trkpt lat="45.87491" lon="5.75486">
        <ele>1045.09</ele>
        <time>2013-11-17T14:05:47Z</time>
      </trkpt>
      <trkpt lat="45.87472" lon="5.75475">
        <ele>1035</ele>
        <time>2013-11-17T14:06:17Z</time>
      </trkpt>
      <trkpt lat="45.87448" lon="5.75465">
        <ele>1024.9</ele>
        <time>2013-11-17T14:06:47Z</time>
      </trkpt>
      <trkpt lat="45.87435" lon="5.75473">
        <ele>1016.25</ele>
        <time>2013-11-17T14:07:17Z</time>
      </trkpt>
      <trkpt lat="45.87406" lon="5.7548">
        <ele>998.95</ele>
        <time>2013-11-17T14:07:47Z</time>
      </trkpt>
      <trkpt lat="45.87381" lon="5.75483">
        <ele>986.93</ele>
        <time>2013-11-17T14:08:17Z</time>
      </trkpt>
      <trkpt lat="45.87379" lon="5.7549">
        <ele>984.05</ele>
        <time>2013-11-17T14:08:47Z</time>
      </trkpt>
      <trkpt lat="45.87351" lon="5.75493">
        <ele>973.95</ele>
        <time>2013-11-17T14:09:17Z</time>
      </trkpt>
      <trkpt lat="45.87327" lon="5.75493">
        <ele>965.3</ele>
        <time>2013-11-17T14:09:47Z</time>
      </trkpt>
      <trkpt lat="45.8733" lon="5.75506">
        <ele>965.3</ele>
        <time>2013-11-17T14:10:17Z</time>
      </trkpt>
      <trkpt lat="45.87337" lon="5.75501">
        <ele>965.3</ele>
        <time>2013-11-17T14:10:47Z</time>
      </trkpt>
      <trkpt lat="45.87341" lon="5.75494">
        <ele>965.3</ele>
        <time>2013-11-17T14:11:17Z</time>
      </trkpt>
      <trkpt lat="45.8734" lon="5.755">
        <ele>965.78</ele>
        <time>2013-11-17T14:11:47Z</time>
      </trkpt>
      <trkpt lat="45.87336" lon="5.75487">
        <ele>965.78</ele>
        <time>2013-11-17T14:12:17Z</time>
      </trkpt>
      <trkpt lat="45.87334" lon="5.75487">
        <ele>965.78</ele>
        <time>2013-11-17T14:12:47Z</time>
      </trkpt>
      <trkpt lat="45.87337" lon="5.75483">
        <ele>966.26</ele>
        <time>2013-11-17T14:13:17Z</time>
      </trkpt>
      <trkpt lat="45.87344" lon="5.7549">
        <ele>966.74</ele>
        <time>2013-11-17T14:13:47Z</time>
      </trkpt>
      <trkpt lat="45.87344" lon="5.75492">
        <ele>966.74</ele>
        <time>2013-11-17T14:14:17Z</time>
      </trkpt>
      <trkpt lat="45.87336" lon="5.75491">
        <ele>967.22</ele>
        <time>2013-11-17T14:14:47Z</time>
      </trkpt>
      <trkpt lat="45.87327" lon="5.75494">
        <ele>967.7</ele>
        <time>2013-11-17T14:15:17Z</time>
      </trkpt>
      <trkpt lat="45.87324" lon="5.75494">
        <ele>967.7</ele>
        <time>2013-11-17T14:15:47Z</time>
      </trkpt>
      <trkpt lat="45.87307" lon="5.75504">
        <ele>960.01</ele>
        <time>2013-11-17T14:16:17Z</time>
      </trkpt>
      <trkpt lat="45.87284" lon="5.75516">
        <ele>949.92</ele>
        <time>2013-11-17T14:16:47Z</time>
      </trkpt>
      <trkpt lat="45.87269" lon="5.75518">
        <ele>940.31</ele>
        <time>2013-11-17T14:17:17Z</time>
      </trkpt>
      <trkpt lat="45.87246" lon="5.75513">
        <ele>931.17</ele>
        <time>2013-11-17T14:17:47Z</time>
      </trkpt>
      <trkpt lat="45.87225" lon="5.75513">
        <ele>921.56</ele>
        <time>2013-11-17T14:18:17Z</time>
      </trkpt>
      <trkpt lat="45.87196" lon="5.75508">
        <ele>911.95</ele>
        <time>2013-11-17T14:18:47Z</time>
      </trkpt>
      <trkpt lat="45.87161" lon="5.75507">
        <ele>901.85</ele>
        <time>2013-11-17T14:19:17Z</time>
      </trkpt>
      <trkpt lat="45.87153" lon="5.75509">
        <ele>896.09</ele>
        <time>2013-11-17T14:19:47Z</time>
      </trkpt>
      <trkpt lat="45.87136" lon="5.75508">
        <ele>889.36</ele>
        <time>2013-11-17T14:20:17Z</time>
      </trkpt>
      <trkpt lat="45.87133" lon="5.75505">
        <ele>886.95</ele>
        <time>2013-11-17T14:20:47Z</time>
      </trkpt>
      <trkpt lat="45.87117" lon="5.75519">
        <ele>877.82</ele>
        <time>2013-11-17T14:21:17Z</time>
      </trkpt>
      <trkpt lat="45.87109" lon="5.75518">
        <ele>871.09</ele>
        <time>2013-11-17T14:21:47Z</time>
      </trkpt>
      <trkpt lat="45.871" lon="5.75523">
        <ele>864.84</ele>
        <time>2013-11-17T14:22:17Z</time>
      </trkpt>
      <trkpt lat="45.87103" lon="5.75519">
        <ele>863.88</ele>
        <time>2013-11-17T14:22:47Z</time>
      </trkpt>
      <trkpt lat="45.87106" lon="5.75519">
        <ele>863.88</ele>
        <time>2013-11-17T14:23:17Z</time>
      </trkpt>
      <trkpt lat="45.87109" lon="5.75515">
        <ele>863.88</ele>
        <time>2013-11-17T14:23:47Z</time>
      </trkpt>
      <trkpt lat="45.87106" lon="5.75515">
        <ele>863.4</ele>
        <time>2013-11-17T14:24:17Z</time>
      </trkpt>
      <trkpt lat="45.87105" lon="5.75511">
        <ele>863.4</ele>
        <time>2013-11-17T14:24:47Z</time>
      </trkpt>
      <trkpt lat="45.871" lon="5.75505">
        <ele>863.88</ele>
        <time>2013-11-17T14:25:17Z</time>
      </trkpt>
      <trkpt lat="45.87103" lon="5.75512">
        <ele>863.88</ele>
        <time>2013-11-17T14:25:47Z</time>
      </trkpt>
      <trkpt lat="45.87104" lon="5.7552">
        <ele>864.36</ele>
        <time>2013-11-17T14:26:17Z</time>
      </trkpt>
      <trkpt lat="45.87104" lon="5.75517">
        <ele>864.84</ele>
        <time>2013-11-17T14:26:47Z</time>
      </trkpt>
      <trkpt lat="45.87103" lon="5.75518">
        <ele>864.84</ele>
        <time>2013-11-17T14:27:17Z</time>
      </trkpt>
      <trkpt lat="45.87102" lon="5.75516">
        <ele>864.84</ele>
        <time>2013-11-17T14:27:47Z</time>
      </trkpt>
      <trkpt lat="45.87084" lon="5.75505">
        <ele>857.63</ele>
        <time>2013-11-17T14:28:17Z</time>
      </trkpt>
      <trkpt lat="45.8707" lon="5.7551">
        <ele>850.9</ele>
        <time>2013-11-17T14:28:47Z</time>
      </trkpt>
      <trkpt lat="45.87053" lon="5.75513">
        <ele>843.69</ele>
        <time>2013-11-17T14:29:17Z</time>
      </trkpt>
      <trkpt lat="45.87043" lon="5.75525">
        <ele>837.93</ele>
        <time>2013-11-17T14:29:47Z</time>
      </trkpt>
      <trkpt lat="45.87026" lon="5.75525">
        <ele>830.72</ele>
        <time>2013-11-17T14:30:17Z</time>
      </trkpt>
      <trkpt lat="45.87007" lon="5.75532">
        <ele>823.03</ele>
        <time>2013-11-17T14:30:47Z</time>
      </trkpt>
      <trkpt lat="45.86991" lon="5.75537">
        <ele>814.85</ele>
        <time>2013-11-17T14:31:17Z</time>
      </trkpt>
      <trkpt lat="45.86971" lon="5.75539">
        <ele>807.16</ele>
        <time>2013-11-17T14:31:47Z</time>
      </trkpt>
      <trkpt lat="45.8695" lon="5.75542">
        <ele>799.95</ele>
        <time>2013-11-17T14:32:17Z</time>
      </trkpt>
      <trkpt lat="45.86922" lon="5.75554">
        <ele>791.78</ele>
        <time>2013-11-17T14:32:47Z</time>
      </trkpt>
      <trkpt lat="45.86893" lon="5.75561">
        <ele>784.09</ele>
        <time>2013-11-17T14:33:17Z</time>
      </trkpt>
      <trkpt lat="45.86869" lon="5.75583">
        <ele>775.92</ele>
        <time>2013-11-17T14:33:47Z</time>
      </trkpt>
      <trkpt lat="45.86838" lon="5.75581">
        <ele>768.23</ele>
        <time>2013-11-17T14:34:17Z</time>
      </trkpt>
      <trkpt lat="45.86813" lon="5.75583">
        <ele>760.06</ele>
        <time>2013-11-17T14:34:47Z</time>
      </trkpt>
      <trkpt lat="45.86806" lon="5.75598">
        <ele>759.58</ele>
        <time>2013-11-17T14:35:17Z</time>
      </trkpt>
      <trkpt lat="45.86801" lon="5.75589">
        <ele>759.58</ele>
        <time>2013-11-17T14:35:47Z</time>
      </trkpt>
      <trkpt lat="45.86802" lon="5.75587">
        <ele>759.1</ele>
        <time>2013-11-17T14:36:17Z</time>
      </trkpt>
      <trkpt lat="45.86799" lon="5.75586">
        <ele>759.58</ele>
        <time>2013-11-17T14:36:47Z</time>
      </trkpt>
      <trkpt lat="45.86797" lon="5.75587">
        <ele>759.58</ele>
        <time>2013-11-17T14:37:17Z</time>
      </trkpt>
      <trkpt lat="45.86798" lon="5.75594">
        <ele>760.06</ele>
        <time>2013-11-17T14:37:47Z</time>
      </trkpt>
      <trkpt lat="45.86802" lon="5.75589">
        <ele>760.54</ele>
        <time>2013-11-17T14:38:17Z</time>
      </trkpt>
      <trkpt lat="45.86802" lon="5.75588">
        <ele>761.02</ele>
        <time>2013-11-17T14:38:47Z</time>
      </trkpt>
      <trkpt lat="45.86799" lon="5.75587">
        <ele>762.94</ele>
        <time>2013-11-17T14:39:17Z</time>
      </trkpt>
      <trkpt lat="45.86806" lon="5.75592">
        <ele>761.98</ele>
        <time>2013-11-17T14:39:47Z</time>
      </trkpt>
      <trkpt lat="45.86806" lon="5.75594">
        <ele>761.98</ele>
        <time>2013-11-17T14:40:17Z</time>
      </trkpt>
      <trkpt lat="45.86803" lon="5.75596">
        <ele>761.98</ele>
        <time>2013-11-17T14:40:47Z</time>
      </trkpt>
      <trkpt lat="45.86803" lon="5.75594">
        <ele>761.98</ele>
        <time>2013-11-17T14:41:17Z</time>
      </trkpt>
      <trkpt lat="45.86799" lon="5.7559">
        <ele>763.9</ele>
        <time>2013-11-17T14:41:47Z</time>
      </trkpt>
      <trkpt lat="45.86797" lon="5.7559">
        <ele>763.9</ele>
        <time>2013-11-17T14:42:17Z</time>
      </trkpt>
      <trkpt lat="45.86793" lon="5.75609">
        <ele>765.83</ele>
        <time>2013-11-17T14:42:47Z</time>
      </trkpt>
      <trkpt lat="45.86772" lon="5.7563">
        <ele>768.71</ele>
        <time>2013-11-17T14:43:17Z</time>
      </trkpt>
      <trkpt lat="45.86748" lon="5.75656">
        <ele>771.6</ele>
        <time>2013-11-17T14:43:47Z</time>
      </trkpt>
      <trkpt lat="45.86741" lon="5.7569">
        <ele>775.44</ele>
        <time>2013-11-17T14:44:17Z</time>
      </trkpt>
      <trkpt lat="45.86743" lon="5.75725">
        <ele>778.81</ele>
        <time>2013-11-17T14:44:47Z</time>
      </trkpt>
      <trkpt lat="45.86725" lon="5.75764">
        <ele>781.21</ele>
        <time>2013-11-17T14:45:17Z</time>
      </trkpt>
      <trkpt lat="45.86694" lon="5.75789">
        <ele>784.57</ele>
        <time>2013-11-17T14:45:47Z</time>
      </trkpt>
      <trkpt lat="45.8668" lon="5.75814">
        <ele>788.42</ele>
        <time>2013-11-17T14:46:17Z</time>
      </trkpt>
      <trkpt lat="45.86668" lon="5.75843">
        <ele>792.26</ele>
        <time>2013-11-17T14:46:47Z</time>
      </trkpt>
      <trkpt lat="45.86668" lon="5.75883">
        <ele>795.15</ele>
        <time>2013-11-17T14:47:17Z</time>
      </trkpt>
      <trkpt lat="45.86658" lon="5.75922">
        <ele>798.51</ele>
        <time>2013-11-17T14:47:47Z</time>
      </trkpt>
      <trkpt lat="45.86641" lon="5.75952">
        <ele>801.88</ele>
        <time>2013-11-17T14:48:17Z</time>
      </trkpt>
      <trkpt lat="45.86617" lon="5.75995">
        <ele>805.72</ele>
        <time>2013-11-17T14:48:47Z</time>
      </trkpt>
      <trkpt lat="45.86591" lon="5.76026">
        <ele>807.64</ele>
        <time>2013-11-17T14:49:17Z</time>
      </trkpt>
      <trkpt lat="45.86582" lon="5.76048">
        <ele>812.93</ele>
        <time>2013-11-17T14:49:47Z</time>
      </trkpt>
      <trkpt lat="45.86577" lon="5.76076">
        <ele>815.34</ele>
        <time>2013-11-17T14:50:17Z</time>
      </trkpt>
      <trkpt lat="45.86567" lon="5.76115">
        <ele>821.1</ele>
        <time>2013-11-17T14:50:47Z</time>
      </trkpt>
      <trkpt lat="45.86566" lon="5.76148">
        <ele>825.91</ele>
        <time>2013-11-17T14:51:17Z</time>
      </trkpt>
      <trkpt lat="45.86559" lon="5.7618">
        <ele>828.31</ele>
        <time>2013-11-17T14:51:47Z</time>
      </trkpt>
      <trkpt lat="45.8655" lon="5.76217">
        <ele>831.68</ele>
        <time>2013-11-17T14:52:17Z</time>
      </trkpt>
      <trkpt lat="45.86538" lon="5.76248">
        <ele>831.68</ele>
        <time>2013-11-17T14:52:47Z</time>
      </trkpt>
      <trkpt lat="45.86515" lon="5.76279">
        <ele>828.79</ele>
        <time>2013-11-17T14:53:17Z</time>
      </trkpt>
      <trkpt lat="45.86501" lon="5.7631">
        <ele>824.95</ele>
        <time>2013-11-17T14:53:47Z</time>
      </trkpt>
      <trkpt lat="45.86478" lon="5.76342">
        <ele>820.14</ele>
        <time>2013-11-17T14:54:17Z</time>
      </trkpt>
      <trkpt lat="45.86467" lon="5.76377">
        <ele>813.41</ele>
        <time>2013-11-17T14:54:47Z</time>
      </trkpt>
      <trkpt lat="45.86453" lon="5.76419">
        <ele>809.09</ele>
        <time>2013-11-17T14:55:17Z</time>
      </trkpt>
      <trkpt lat="45.86412" lon="5.7647">
        <ele>806.68</ele>
        <time>2013-11-17T14:55:47Z</time>
      </trkpt>
      <trkpt lat="45.86381" lon="5.76494">
        <ele>803.32</ele>
        <time>2013-11-17T14:56:17Z</time>
      </trkpt>
      <trkpt lat="45.86355" lon="5.76515">
        <ele>802.36</ele>
        <time>2013-11-17T14:56:47Z</time>
      </trkpt>
      <trkpt lat="45.86327" lon="5.76527">
        <ele>796.59</ele>
        <time>2013-11-17T14:57:17Z</time>
      </trkpt>
      <trkpt lat="45.86298" lon="5.76529">
        <ele>788.9</ele>
        <time>2013-11-17T14:57:47Z</time>
      </trkpt>
      <trkpt lat="45.86272" lon="5.76498">
        <ele>788.9</ele>
        <time>2013-11-17T14:58:17Z</time>
      </trkpt>
      <trkpt lat="45.86251" lon="5.7648">
        <ele>791.78</ele>
        <time>2013-11-17T14:58:47Z</time>
      </trkpt>
      <trkpt lat="45.86223" lon="5.76486">
        <ele>789.38</ele>
        <time>2013-11-17T14:59:17Z</time>
      </trkpt>
      <trkpt lat="45.8619" lon="5.76487">
        <ele>788.42</ele>
        <time>2013-11-17T14:59:47Z</time>
      </trkpt>
      <trkpt lat="45.86169" lon="5.76478">
        <ele>783.61</ele>
        <time>2013-11-17T15:00:17Z</time>
      </trkpt>
      <trkpt lat="45.86142" lon="5.7647">
        <ele>780.25</ele>
        <time>2013-11-17T15:00:47Z</time>
      </trkpt>
      <trkpt lat="45.86112" lon="5.76473">
        <ele>781.69</ele>
        <time>2013-11-17T15:01:17Z</time>
      </trkpt>
      <trkpt lat="45.86079" lon="5.76477">
        <ele>782.65</ele>
        <time>2013-11-17T15:01:47Z</time>
      </trkpt>
      <trkpt lat="45.86045" lon="5.76472">
        <ele>782.65</ele>
        <time>2013-11-17T15:02:17Z</time>
      </trkpt>
      <trkpt lat="45.86038" lon="5.7647">
        <ele>781.21</ele>
        <time>2013-11-17T15:02:47Z</time>
      </trkpt>
      <trkpt lat="45.86038" lon="5.76473">
        <ele>781.21</ele>
        <time>2013-11-17T15:03:17Z</time>
      </trkpt>
      <trkpt lat="45.86037" lon="5.76471">
        <ele>780.73</ele>
        <time>2013-11-17T15:03:47Z</time>
      </trkpt>
      <trkpt lat="45.86041" lon="5.76471">
        <ele>780.73</ele>
        <time>2013-11-17T15:04:17Z</time>
      </trkpt>
      <trkpt lat="45.86033" lon="5.76472">
        <ele>780.73</ele>
        <time>2013-11-17T15:04:47Z</time>
      </trkpt>
      <trkpt lat="45.86013" lon="5.76498">
        <ele>775.92</ele>
        <time>2013-11-17T15:05:17Z</time>
      </trkpt>
      <trkpt lat="45.8598" lon="5.76528">
        <ele>771.11</ele>
        <time>2013-11-17T15:05:47Z</time>
      </trkpt>
      <trkpt lat="45.8595" lon="5.76542">
        <ele>766.79</ele>
        <time>2013-11-17T15:06:17Z</time>
      </trkpt>
      <trkpt lat="45.85913" lon="5.7656">
        <ele>762.46</ele>
        <time>2013-11-17T15:06:47Z</time>
      </trkpt>
      <trkpt lat="45.85876" lon="5.76575">
        <ele>760.06</ele>
        <time>2013-11-17T15:07:17Z</time>
      </trkpt>
      <trkpt lat="45.85847" lon="5.76601">
        <ele>756.21</ele>
        <time>2013-11-17T15:07:47Z</time>
      </trkpt>
      <trkpt lat="45.8584" lon="5.76633">
        <ele>752.37</ele>
        <time>2013-11-17T15:08:17Z</time>
      </trkpt>
      <trkpt lat="45.85846" lon="5.76634">
        <ele>751.41</ele>
        <time>2013-11-17T15:08:47Z</time>
      </trkpt>
      <trkpt lat="45.85844" lon="5.76631">
        <ele>750.93</ele>
        <time>2013-11-17T15:09:17Z</time>
      </trkpt>
      <trkpt lat="45.85844" lon="5.76628">
        <ele>751.41</ele>
        <time>2013-11-17T15:09:47Z</time>
      </trkpt>
      <trkpt lat="45.85845" lon="5.76626">
        <ele>751.41</ele>
        <time>2013-11-17T15:10:17Z</time>
      </trkpt>
      <trkpt lat="45.85847" lon="5.7663">
        <ele>751.41</ele>
        <time>2013-11-17T15:10:47Z</time>
      </trkpt>
      <trkpt lat="45.85844" lon="5.76629">
        <ele>751.41</ele>
        <time>2013-11-17T15:11:17Z</time>
      </trkpt>
      <trkpt lat="45.85846" lon="5.76631">
        <ele>751.41</ele>
        <time>2013-11-17T15:11:47Z</time>
      </trkpt>
      <trkpt lat="45.85873" lon="5.76652">
        <ele>749</ele>
        <time>2013-11-17T15:12:17Z</time>
      </trkpt>
      <trkpt lat="45.85896" lon="5.76686">
        <ele>744.2</ele>
        <time>2013-11-17T15:12:47Z</time>
      </trkpt>
      <trkpt lat="45.85905" lon="5.76727">
        <ele>739.87</ele>
        <time>2013-11-17T15:13:17Z</time>
      </trkpt>
      <trkpt lat="45.85921" lon="5.76766">
        <ele>735.55</ele>
        <time>2013-11-17T15:13:47Z</time>
      </trkpt>
      <trkpt lat="45.85929" lon="5.76813">
        <ele>731.22</ele>
        <time>2013-11-17T15:14:17Z</time>
      </trkpt>
      <trkpt lat="45.85921" lon="5.7686">
        <ele>726.89</ele>
        <time>2013-11-17T15:14:47Z</time>
      </trkpt>
      <trkpt lat="45.85925" lon="5.76907">
        <ele>722.09</ele>
        <time>2013-11-17T15:15:17Z</time>
      </trkpt>
      <trkpt lat="45.85909" lon="5.76954">
        <ele>717.28</ele>
        <time>2013-11-17T15:15:47Z</time>
      </trkpt>
      <trkpt lat="45.85902" lon="5.77002">
        <ele>711.99</ele>
        <time>2013-11-17T15:16:17Z</time>
      </trkpt>
      <trkpt lat="45.85904" lon="5.77052">
        <ele>708.15</ele>
        <time>2013-11-17T15:16:47Z</time>
      </trkpt>
      <trkpt lat="45.85907" lon="5.77095">
        <ele>702.86</ele>
        <time>2013-11-17T15:17:17Z</time>
      </trkpt>
      <trkpt lat="45.85892" lon="5.77076">
        <ele>698.05</ele>
        <time>2013-11-17T15:17:47Z</time>
      </trkpt>
      <trkpt lat="45.85876" lon="5.7704">
        <ele>693.73</ele>
        <time>2013-11-17T15:18:17Z</time>
      </trkpt>
      <trkpt lat="45.85858" lon="5.76997">
        <ele>688.44</ele>
        <time>2013-11-17T15:18:47Z</time>
      </trkpt>
      <trkpt lat="45.85851" lon="5.76945">
        <ele>684.12</ele>
        <time>2013-11-17T15:19:17Z</time>
      </trkpt>
      <trkpt lat="45.85845" lon="5.76899">
        <ele>679.79</ele>
        <time>2013-11-17T15:19:47Z</time>
      </trkpt>
      <trkpt lat="45.8583" lon="5.7689">
        <ele>674.5</ele>
        <time>2013-11-17T15:20:17Z</time>
      </trkpt>
      <trkpt lat="45.85826" lon="5.7693">
        <ele>670.18</ele>
        <time>2013-11-17T15:20:47Z</time>
      </trkpt>
      <trkpt lat="45.85821" lon="5.76979">
        <ele>665.85</ele>
        <time>2013-11-17T15:21:17Z</time>
      </trkpt>
      <trkpt lat="45.85816" lon="5.77026">
        <ele>661.52</ele>
        <time>2013-11-17T15:21:47Z</time>
      </trkpt>
      <trkpt lat="45.85827" lon="5.77066">
        <ele>657.2</ele>
        <time>2013-11-17T15:22:17Z</time>
      </trkpt>
      <trkpt lat="45.85824" lon="5.77112">
        <ele>651.91</ele>
        <time>2013-11-17T15:22:47Z</time>
      </trkpt>
      <trkpt lat="45.85833" lon="5.77161">
        <ele>647.1</ele>
        <time>2013-11-17T15:23:17Z</time>
      </trkpt>
      <trkpt lat="45.85859" lon="5.77188">
        <ele>642.78</ele>
        <time>2013-11-17T15:23:47Z</time>
      </trkpt>
      <trkpt lat="45.85864" lon="5.77239">
        <ele>637.97</ele>
        <time>2013-11-17T15:24:17Z</time>
      </trkpt>
      <trkpt lat="45.85868" lon="5.77282">
        <ele>632.68</ele>
        <time>2013-11-17T15:24:47Z</time>
      </trkpt>
      <trkpt lat="45.85855" lon="5.77268">
        <ele>626.92</ele>
        <time>2013-11-17T15:25:17Z</time>
      </trkpt>
      <trkpt lat="45.85833" lon="5.77232">
        <ele>622.11</ele>
        <time>2013-11-17T15:25:47Z</time>
      </trkpt>
      <trkpt lat="45.85806" lon="5.77218">
        <ele>616.82</ele>
        <time>2013-11-17T15:26:17Z</time>
      </trkpt>
      <trkpt lat="45.85771" lon="5.77194">
        <ele>611.54</ele>
        <time>2013-11-17T15:26:47Z</time>
      </trkpt>
      <trkpt lat="45.85757" lon="5.77158">
        <ele>607.21</ele>
        <time>2013-11-17T15:27:17Z</time>
      </trkpt>
      <trkpt lat="45.85737" lon="5.77111">
        <ele>602.4</ele>
        <time>2013-11-17T15:27:47Z</time>
      </trkpt>
      <trkpt lat="45.85721" lon="5.77079">
        <ele>597.12</ele>
        <time>2013-11-17T15:28:17Z</time>
      </trkpt>
      <trkpt lat="45.85707" lon="5.77052">
        <ele>591.83</ele>
        <time>2013-11-17T15:28:47Z</time>
      </trkpt>
      <trkpt lat="45.85701" lon="5.77088">
        <ele>587.02</ele>
        <time>2013-11-17T15:29:17Z</time>
      </trkpt>
      <trkpt lat="45.85708" lon="5.77139">
        <ele>581.25</ele>
        <time>2013-11-17T15:29:47Z</time>
      </trkpt>
      <trkpt lat="45.85712" lon="5.77192">
        <ele>576.93</ele>
        <time>2013-11-17T15:30:17Z</time>
      </trkpt>
      <trkpt lat="45.85724" lon="5.77237">
        <ele>572.12</ele>
        <time>2013-11-17T15:30:47Z</time>
      </trkpt>
      <trkpt lat="45.85752" lon="5.7726">
        <ele>568.28</ele>
        <time>2013-11-17T15:31:17Z</time>
      </trkpt>
      <trkpt lat="45.85735" lon="5.77276">
        <ele>562.51</ele>
        <time>2013-11-17T15:31:47Z</time>
      </trkpt>
      <trkpt lat="45.85707" lon="5.77269">
        <ele>557.7</ele>
        <time>2013-11-17T15:32:17Z</time>
      </trkpt>
      <trkpt lat="45.85676" lon="5.77247">
        <ele>552.41</ele>
        <time>2013-11-17T15:32:47Z</time>
      </trkpt>
      <trkpt lat="45.85649" lon="5.77213">
        <ele>548.09</ele>
        <time>2013-11-17T15:33:17Z</time>
      </trkpt>
      <trkpt lat="45.85634" lon="5.77176">
        <ele>542.8</ele>
        <time>2013-11-17T15:33:47Z</time>
      </trkpt>
      <trkpt lat="45.85621" lon="5.77174">
        <ele>537.51</ele>
        <time>2013-11-17T15:34:17Z</time>
      </trkpt>
      <trkpt lat="45.85618" lon="5.77226">
        <ele>532.71</ele>
        <time>2013-11-17T15:34:47Z</time>
      </trkpt>
      <trkpt lat="45.85634" lon="5.77269">
        <ele>528.38</ele>
        <time>2013-11-17T15:35:17Z</time>
      </trkpt>
      <trkpt lat="45.85659" lon="5.77295">
        <ele>524.06</ele>
        <time>2013-11-17T15:35:47Z</time>
      </trkpt>
      <trkpt lat="45.85686" lon="5.77318">
        <ele>520.21</ele>
        <time>2013-11-17T15:36:17Z</time>
      </trkpt>
      <trkpt lat="45.85662" lon="5.77322">
        <ele>514.44</ele>
        <time>2013-11-17T15:36:47Z</time>
      </trkpt>
      <trkpt lat="45.85629" lon="5.77312">
        <ele>510.6</ele>
        <time>2013-11-17T15:37:17Z</time>
      </trkpt>
      <trkpt lat="45.85605" lon="5.77289">
        <ele>505.31</ele>
        <time>2013-11-17T15:37:47Z</time>
      </trkpt>
      <trkpt lat="45.85582" lon="5.77258">
        <ele>500.5</ele>
        <time>2013-11-17T15:38:17Z</time>
      </trkpt>
      <trkpt lat="45.85548" lon="5.77259">
        <ele>495.22</ele>
        <time>2013-11-17T15:38:47Z</time>
      </trkpt>
      <trkpt lat="45.85514" lon="5.77282">
        <ele>491.37</ele>
        <time>2013-11-17T15:39:17Z</time>
      </trkpt>
      <trkpt lat="45.85514" lon="5.77282">
        <ele>490.89</ele>
        <time>2013-11-17T15:39:47Z</time>
      </trkpt>
      <trkpt lat="45.85522" lon="5.77293">
        <ele>489.45</ele>
        <time>2013-11-17T15:40:17Z</time>
      </trkpt>
      <trkpt lat="45.85551" lon="5.77281">
        <ele>484.64</ele>
        <time>2013-11-17T15:40:47Z</time>
      </trkpt>
      <trkpt lat="45.85583" lon="5.773">
        <ele>480.32</ele>
        <time>2013-11-17T15:41:17Z</time>
      </trkpt>
      <trkpt lat="45.85604" lon="5.77344">
        <ele>476.47</ele>
        <time>2013-11-17T15:41:47Z</time>
      </trkpt>
      <trkpt lat="45.85628" lon="5.77366">
        <ele>473.11</ele>
        <time>2013-11-17T15:42:17Z</time>
      </trkpt>
      <trkpt lat="45.85656" lon="5.77406">
        <ele>470.22</ele>
        <time>2013-11-17T15:42:47Z</time>
      </trkpt>
      <trkpt lat="45.85677" lon="5.7744">
        <ele>465.9</ele>
        <time>2013-11-17T15:43:17Z</time>
      </trkpt>
      <trkpt lat="45.85699" lon="5.77461">
        <ele>462.05</ele>
        <time>2013-11-17T15:43:47Z</time>
      </trkpt>
      <trkpt lat="45.857" lon="5.7751">
        <ele>457.72</ele>
        <time>2013-11-17T15:44:17Z</time>
      </trkpt>
      <trkpt lat="45.85682" lon="5.77543">
        <ele>454.84</ele>
        <time>2013-11-17T15:44:47Z</time>
      </trkpt>
      <trkpt lat="45.85679" lon="5.77583">
        <ele>454.36</ele>
        <time>2013-11-17T15:45:17Z</time>
      </trkpt>
      <trkpt lat="45.85678" lon="5.77586">
        <ele>455.32</ele>
        <time>2013-11-17T15:45:47Z</time>
      </trkpt>
      <trkpt lat="45.85678" lon="5.77589">
        <ele>454.36</ele>
        <time>2013-11-17T15:46:17Z</time>
      </trkpt>
      <trkpt lat="45.85677" lon="5.77591">
        <ele>454.36</ele>
        <time>2013-11-17T15:46:47Z</time>
      </trkpt>
      <trkpt lat="45.85677" lon="5.77591">
        <ele>454.36</ele>
        <time>2013-11-17T15:47:17Z</time>
      </trkpt>
      <trkpt lat="45.85676" lon="5.77589">
        <ele>454.36</ele>
        <time>2013-11-17T15:47:47Z</time>
      </trkpt>
      <trkpt lat="45.85679" lon="5.77588">
        <ele>454.36</ele>
        <time>2013-11-17T15:48:17Z</time>
      </trkpt>
      <trkpt lat="45.85676" lon="5.77591">
        <ele>454.36</ele>
        <time>2013-11-17T15:48:47Z</time>
      </trkpt>
    </trkseg>
  </trk>
</gpx>